Observation data for Earth on 08/10/2018      Previous  Date       Current Mesonet Observations  Soil Data  Daily Summary Page  Observations in Plain Language
KEA1 100500Z 16003KT 23/16 A302 RMK A01 T02270158  RH  065%=      5-min Rain = 0
KEA1 100501Z 15003KT 23/16 A302 RMK A01 T02260158  RH  065%=      5-min Rain = 0
KEA1 100502Z 15002KT 23/16 A302 RMK A01 T02260158  RH  065%=      5-min Rain = 0
KEA1 100503Z 14003KT 23/16 A302 RMK A01 T02260158  RH  065%=      5-min Rain = 0
KEA1 100504Z 14002KT 23/16 A302 RMK A01 T02260158  RH  065%=      5-min Rain = 0
KEA1 100505Z 14002KT 23/16 A302 RMK A01 T02260157  RH  065%=      5-min Rain = 0
KEA1 100506Z 14003KT 23/16 A302 RMK A01 T02260157  RH  065%=      5-min Rain = 0
KEA1 100507Z 15003KT 23/16 A302 RMK A01 T02260158  RH  065%=      5-min Rain = 0
KEA1 100508Z 15003KT 23/16 A302 RMK A01 T02260158  RH  065%=      5-min Rain = 0
KEA1 100509Z 15003KT 23/16 A302 RMK A01 T02260158  RH  065%=      5-min Rain = 0
KEA1 100510Z 16003KT 23/16 A302 RMK A01 T02260158  RH  065%=      5-min Rain = 0
KEA1 100511Z 17004KT 23/16 A302 RMK A01 T02260158  RH  065%=      5-min Rain = 0
KEA1 100512Z 18004KT 23/16 A302 RMK A01 T02260158  RH  065%=      5-min Rain = 0
KEA1 100513Z 18004KT 23/16 A302 RMK A01 T02270159  RH  065%=      5-min Rain = 0
KEA1 100514Z 17004KT 23/16 A302 RMK A01 T02260158  RH  065%=      5-min Rain = 0
KEA1 100515Z 17004KT 23/16 A302 RMK A01 T02260159  RH  066%=      5-min Rain = 0
KEA1 100516Z 17003KT 23/16 A302 RMK A01 T02260159  RH  066%=      5-min Rain = 0
KEA1 100517Z 15002KT 22/16 A302 RMK A01 T02240159  RH  067%=      5-min Rain = 0
KEA1 100518Z 14002KT 22/16 A302 RMK A01 T02220158  RH  067%=      5-min Rain = 0
KEA1 100519Z 15002KT 22/16 A302 RMK A01 T02210157  RH  067%=      5-min Rain = 0
KEA1 100520Z 16003KT 22/16 A302 RMK A01 T02220158  RH  067%=      5-min Rain = 0
KEA1 100521Z 17002KT 22/16 A302 RMK A01 T02220158  RH  067%=      5-min Rain = 0
KEA1 100522Z 16002KT 22/16 A302 RMK A01 T02230158  RH  067%=      5-min Rain = 0
KEA1 100523Z 16002KT 22/16 A302 RMK A01 T02240158  RH  066%=      5-min Rain = 0
KEA1 100524Z 16002KT 22/16 A302 RMK A01 T02240157  RH  066%=      5-min Rain = 0
KEA1 100525Z 17002KT 23/16 A302 RMK A01 T02250157  RH  065%=      5-min Rain = 0
KEA1 100526Z 17002KT 23/16 A302 RMK A01 T02260157  RH  065%=      5-min Rain = 0
KEA1 100527Z 17002KT 23/16 A302 RMK A01 T02270158  RH  065%=      5-min Rain = 0
KEA1 100528Z 16002KT 23/16 A302 RMK A01 T02270157  RH  065%=      5-min Rain = 0
KEA1 100529Z 15003KT 23/16 A302 RMK A01 T02280157  RH  064%=      5-min Rain = 0
KEA1 100530Z 15003KT 23/16 A302 RMK A01 T02290157  RH  064%=      5-min Rain = 0
KEA1 100531Z 14003KT 23/16 A302 RMK A01 T02290158  RH  064%=      5-min Rain = 0
KEA1 100532Z 14004KT 23/16 A302 RMK A01 T02290158  RH  064%=      5-min Rain = 0
KEA1 100533Z 15004KT 23/16 A302 RMK A01 T02280158  RH  064%=      5-min Rain = 0
KEA1 100534Z 15004KT 23/16 A302 RMK A01 T02280158  RH  065%=      5-min Rain = 0
KEA1 100535Z 15004KT 23/16 A302 RMK A01 T02270158  RH  065%=      5-min Rain = 0
KEA1 100536Z 15004KT 23/16 A302 RMK A01 T02270158  RH  065%=      5-min Rain = 0
KEA1 100537Z 16004KT 23/16 A302 RMK A01 T02260159  RH  066%=      5-min Rain = 0
KEA1 100538Z 16004KT 22/16 A302 RMK A01 T02240159  RH  067%=      5-min Rain = 0
KEA1 100539Z 16005KT 22/16 A302 RMK A01 T02220159  RH  068%=      5-min Rain = 0
KEA1 100540Z 16005KT 22/16 A302 RMK A01 T02200159  RH  068%=      5-min Rain = 0
KEA1 100541Z 16005KT 22/16 A302 RMK A01 T02190159  RH  069%=      5-min Rain = 0
KEA1 100542Z 16005KT 22/16 A302 RMK A01 T02180159  RH  069%=      5-min Rain = 0
KEA1 100543Z 16005KT 22/16 A302 RMK A01 T02170160  RH  070%=      5-min Rain = 0
KEA1 100544Z 16005KT 22/16 A302 RMK A01 T02170160  RH  070%=      5-min Rain = 0
KEA1 100545Z 16005KT 22/16 A302 RMK A01 T02170160  RH  070%=      5-min Rain = 0
KEA1 100546Z 15005KT 22/16 A302 RMK A01 T02170160  RH  070%=      5-min Rain = 0
KEA1 100547Z 15006KT 22/16 A302 RMK A01 T02170160  RH  070%=      5-min Rain = 0
KEA1 100548Z 15006KT 22/16 A302 RMK A01 T02170160  RH  070%=      5-min Rain = 0
KEA1 100549Z 15006KT 22/16 A302 RMK A01 T02160160  RH  070%=      5-min Rain = 0
KEA1 100550Z 15006KT 22/16 A302 RMK A01 T02170160  RH  070%=      5-min Rain = 0
KEA1 100551Z 14006KT 22/16 A302 RMK A01 T02170160  RH  070%=      5-min Rain = 0
KEA1 100552Z 13006KT 22/16 A302 RMK A01 T02180160  RH  070%=      5-min Rain = 0
KEA1 100553Z 13007KT 22/16 A302 RMK A01 T02170160  RH  070%=      5-min Rain = 0
KEA1 100554Z 13007KT 22/16 A302 RMK A01 T02180160  RH  070%=      5-min Rain = 0
KEA1 100555Z 12008KT 22/16 A302 RMK A01 T02170160  RH  070%=      5-min Rain = 0
KEA1 100556Z 13008KT 22/16 A302 RMK A01 T02170161  RH  070%=      5-min Rain = 0
KEA1 100557Z 13007KT 22/16 A302 RMK A01 T02180161  RH  070%=      5-min Rain = 0
KEA1 100558Z 13007KT 22/16 A302 RMK A01 T02180161  RH  070%=      5-min Rain = 0
KEA1 100559Z 13007KT 22/16 A302 RMK A01 T02180161  RH  070%=      5-min Rain = 0
KEA1 100600Z 13007KT 22/16 A302 RMK A01 T02190161  RH  069%=      5-min Rain = 0
KEA1 100601Z 13006KT 22/16 A302 RMK A01 T02190161  RH  069%=      5-min Rain = 0
KEA1 100602Z 13007KT 22/16 A302 RMK A01 T02190161  RH  069%=      5-min Rain = 0
KEA1 100603Z 13007KT 22/16 A302 RMK A01 T02200161  RH  069%=      5-min Rain = 0
KEA1 100604Z 13006KT 22/16 A302 RMK A01 T02200161  RH  069%=      5-min Rain = 0
KEA1 100605Z 12006KT 22/16 A302 RMK A01 T02200161  RH  069%=      5-min Rain = 0
KEA1 100606Z 12006KT 22/16 A302 RMK A01 T02200161  RH  069%=      5-min Rain = 0
KEA1 100607Z 13006KT 22/16 A302 RMK A01 T02190161  RH  069%=      5-min Rain = 0
KEA1 100608Z 13006KT 22/16 A302 RMK A01 T02190161  RH  069%=      5-min Rain = 0
KEA1 100609Z 13006KT 22/16 A302 RMK A01 T02190161  RH  070%=      5-min Rain = 0
KEA1 100610Z 13005KT 22/16 A302 RMK A01 T02190161  RH  070%=      5-min Rain = 0
KEA1 100611Z 13005KT 22/16 A302 RMK A01 T02190161  RH  070%=      5-min Rain = 0
KEA1 100612Z 13005KT 22/16 A302 RMK A01 T02180161  RH  070%=      5-min Rain = 0
KEA1 100613Z 13005KT 22/16 A302 RMK A01 T02180161  RH  070%=      5-min Rain = 0
KEA1 100614Z 13005KT 22/16 A302 RMK A01 T02170161  RH  070%=      5-min Rain = 0
KEA1 100615Z 13006KT 22/16 A302 RMK A01 T02170161  RH  071%=      5-min Rain = 0
KEA1 100616Z 13006KT 22/16 A302 RMK A01 T02160161  RH  071%=      5-min Rain = 0
KEA1 100617Z 13006KT 22/16 A302 RMK A01 T02160161  RH  071%=      5-min Rain = 0
KEA1 100618Z 12006KT 22/16 A302 RMK A01 T02150161  RH  071%=      5-min Rain = 0
KEA1 100619Z 12007KT 22/16 A302 RMK A01 T02150161  RH  071%=      5-min Rain = 0
KEA1 100620Z 12007KT 22/16 A302 RMK A01 T02150161  RH  072%=      5-min Rain = 0
KEA1 100621Z 12005KT 21/16 A302 RMK A01 T02140161  RH  072%=      5-min Rain = 0
KEA1 100622Z 12006KT 21/16 A302 RMK A01 T02130161  RH  072%=      5-min Rain = 0
KEA1 100623Z 12006KT 21/16 A302 RMK A01 T02130161  RH  072%=      5-min Rain = 0
KEA1 100624Z 12006KT 21/16 A302 RMK A01 T02120161  RH  072%=      5-min Rain = 0
KEA1 100625Z 12006KT 21/16 A302 RMK A01 T02120160  RH  072%=      5-min Rain = 0
KEA1 100626Z 13005KT 21/16 A302 RMK A01 T02120160  RH  072%=      5-min Rain = 0
KEA1 100627Z 13005KT 21/16 A302 RMK A01 T02120160  RH  072%=      5-min Rain = 0
KEA1 100628Z 13005KT 21/16 A302 RMK A01 T02130161  RH  072%=      5-min Rain = 0
KEA1 100629Z 13005KT 21/16 A302 RMK A01 T02130161  RH  072%=      5-min Rain = 0
KEA1 100630Z 13004KT 21/16 A302 RMK A01 T02130161  RH  072%=      5-min Rain = 0
KEA1 100631Z 13004KT 21/16 A302 RMK A01 T02120161  RH  072%=      5-min Rain = 0
KEA1 100632Z 13004KT 21/16 A302 RMK A01 T02120161  RH  073%=      5-min Rain = 0
KEA1 100633Z 13004KT 21/16 A302 RMK A01 T02120161  RH  073%=      5-min Rain = 0
KEA1 100634Z 13005KT 21/16 A302 RMK A01 T02120161  RH  073%=      5-min Rain = 0
KEA1 100635Z 12004KT 21/16 A302 RMK A01 T02120161  RH  072%=      5-min Rain = 0
KEA1 100636Z 12004KT 21/16 A302 RMK A01 T02120161  RH  072%=      5-min Rain = 0
KEA1 100637Z 12004KT 21/16 A302 RMK A01 T02120161  RH  072%=      5-min Rain = 0
KEA1 100638Z 12003KT 21/16 A302 RMK A01 T02120161  RH  072%=      5-min Rain = 0
KEA1 100639Z 12003KT 21/16 A302 RMK A01 T02120161  RH  072%=      5-min Rain = 0
KEA1 100640Z 12003KT 21/16 A302 RMK A01 T02130161  RH  072%=      5-min Rain = 0
KEA1 100641Z 13003KT 21/16 A302 RMK A01 T02130161  RH  072%=      5-min Rain = 0
KEA1 100642Z 14002KT 21/16 A302 RMK A01 T02130161  RH  072%=      5-min Rain = 0
KEA1 100643Z 15003KT 21/16 A302 RMK A01 T02130161  RH  072%=      5-min Rain = 0
KEA1 100644Z 13003KT 21/16 A302 RMK A01 T02130161  RH  072%=      5-min Rain = 0
KEA1 100645Z 12003KT 21/16 A302 RMK A01 T02130161  RH  072%=      5-min Rain = 0
KEA1 100646Z 12004KT 21/16 A302 RMK A01 T02130160  RH  072%=      5-min Rain = 0
KEA1 100647Z 13003KT 21/16 A302 RMK A01 T02140161  RH  072%=      5-min Rain = 0
KEA1 100648Z 12003KT 21/16 A302 RMK A01 T02140161  RH  072%=      5-min Rain = 0
KEA1 100649Z 14003KT 21/16 A302 RMK A01 T02140161  RH  071%=      5-min Rain = 0
KEA1 100650Z 13003KT 21/16 A302 RMK A01 T02140160  RH  071%=      5-min Rain = 0
KEA1 100651Z 14003KT 22/16 A302 RMK A01 T02150161  RH  071%=      5-min Rain = 0
KEA1 100652Z 15002KT 21/16 A302 RMK A01 T02130160  RH  072%=      5-min Rain = 0
KEA1 100653Z 14002KT 21/16 A302 RMK A01 T02120160  RH  072%=      5-min Rain = 0
KEA1 100654Z 13002KT 21/16 A302 RMK A01 T02120160  RH  072%=      5-min Rain = 0
KEA1 100655Z 13002KT 21/16 A302 RMK A01 T02120160  RH  072%=      5-min Rain = 0
KEA1 100656Z 14002KT 21/16 A302 RMK A01 T02120160  RH  072%=      5-min Rain = 0
KEA1 100657Z 14002KT 21/16 A302 RMK A01 T02120161  RH  072%=      5-min Rain = 0
KEA1 100658Z 14002KT 21/16 A302 RMK A01 T02120161  RH  072%=      5-min Rain = 0
KEA1 100659Z 13002KT 21/16 A302 RMK A01 T02120161  RH  072%=      5-min Rain = 0
KEA1 100700Z 14002KT 21/16 A302 RMK A01 T02120160  RH  072%=      5-min Rain = 0
KEA1 100701Z 14002KT 21/16 A302 RMK A01 T02130160  RH  072%=      5-min Rain = 0
KEA1 100702Z 13002KT 21/16 A3019 RMK A01 T02140161  RH  072%=      5-min Rain = 0
KEA1 100703Z 13002KT 21/16 A3019 RMK A01 T02140161  RH  072%=      5-min Rain = 0
KEA1 100704Z 13002KT 21/16 A3019 RMK A01 T02140161  RH  072%=      5-min Rain = 0
KEA1 100705Z 14002KT 21/16 A3019 RMK A01 T02140161  RH  072%=      5-min Rain = 0
KEA1 100706Z 15002KT 21/16 A3019 RMK A01 T02140161  RH  072%=      5-min Rain = 0
KEA1 100707Z 15002KT 21/16 A3019 RMK A01 T02140161  RH  072%=      5-min Rain = 0
KEA1 100708Z 16002KT 21/16 A3019 RMK A01 T02140161  RH  072%=      5-min Rain = 0
KEA1 100709Z 15002KT 21/16 A3019 RMK A01 T02140161  RH  072%=      5-min Rain = 0
KEA1 100710Z 16002KT 21/16 A3019 RMK A01 T02140162  RH  072%=      5-min Rain = 0
KEA1 100711Z 16002KT 21/16 A3019 RMK A01 T02140161  RH  072%=      5-min Rain = 0
KEA1 100712Z 16002KT 21/16 A3019 RMK A01 T02140161  RH  072%=      5-min Rain = 0
KEA1 100713Z 17001KT 21/16 A3019 RMK A01 T02130161  RH  072%=      5-min Rain = 0
KEA1 100714Z 17001KT 21/16 A3019 RMK A01 T02130161  RH  072%=      5-min Rain = 0
KEA1 100715Z 17001KT 21/16 A3019 RMK A01 T02130161  RH  072%=      5-min Rain = 0
KEA1 100716Z 17000KT 21/16 A3019 RMK A01 T02120160  RH  072%=      5-min Rain = 0
KEA1 100717Z 17000KT 21/16 A3019 RMK A01 T02120161  RH  072%=      5-min Rain = 0
KEA1 100718Z 17000KT 21/16 A3019 RMK A01 T02110160  RH  073%=      5-min Rain = 0
KEA1 100719Z 17000KT 21/16 A3019 RMK A01 T02090160  RH  074%=      5-min Rain = 0
KEA1 100720Z 00000KT 21/16 A3019 RMK A01 T02080160  RH  074%=      5-min Rain = 0
KEA1 100721Z 00000KT 21/16 A3019 RMK A01 T02080160  RH  074%=      5-min Rain = 0
KEA1 100722Z 00000KT 21/16 A3019 RMK A01 T02070160  RH  074%=      5-min Rain = 0
KEA1 100723Z 00000KT 21/16 A3019 RMK A01 T02070160  RH  075%=      5-min Rain = 0
KEA1 100724Z 00000KT 21/16 A3019 RMK A01 T02070161  RH  075%=      5-min Rain = 0
KEA1 100725Z 32000KT 21/16 A3019 RMK A01 T02060161  RH  075%=      5-min Rain = 0
KEA1 100726Z 31001KT 21/16 A3019 RMK A01 T02070161  RH  075%=      5-min Rain = 0
KEA1 100727Z 29002KT 21/16 A3019 RMK A01 T02070161  RH  075%=      5-min Rain = 0
KEA1 100728Z 29002KT 21/16 A3019 RMK A01 T02060161  RH  075%=      5-min Rain = 0
KEA1 100729Z 28003KT 21/16 A3019 RMK A01 T02060162  RH  076%=      5-min Rain = 0
KEA1 100730Z 27003KT 21/16 A3019 RMK A01 T02070162  RH  075%=      5-min Rain = 0
KEA1 100731Z 25003KT 21/16 A3019 RMK A01 T02100163  RH  074%=      5-min Rain = 0
KEA1 100732Z 27006KT 21/16 A302 RMK A01 T02110163  RH  074%=      5-min Rain = 0
KEA1 100733Z 27007KT 21/17 A302 RMK A01 T02110165  RH  075%=      5-min Rain = 0
KEA1 100734Z 27007KT 21/17 A302 RMK A01 T02110166  RH  076%=      5-min Rain = 0
KEA1 100735Z 27007KT 21/17 A302 RMK A01 T02110168  RH  076%=      5-min Rain = 0
KEA1 100736Z 27009KT 21/17 A302 RMK A01 T02110168  RH  077%=      5-min Rain = 0
KEA1 100737Z 27008KT 21/17 A302 RMK A01 T02110169  RH  077%=      5-min Rain = 0
KEA1 100738Z 26007KT 21/17 A3019 RMK A01 T02100169  RH  078%=      5-min Rain = 0
KEA1 100739Z 26006KT 21/17 A3019 RMK A01 T02090169  RH  078%=      5-min Rain = 0
KEA1 100740Z 26007KT 21/17 A3019 RMK A01 T02090170  RH  078%=      5-min Rain = 0
KEA1 100741Z 26007KT 21/17 A3019 RMK A01 T02080170  RH  079%=      5-min Rain = 0
KEA1 100742Z 26007KT 21/17 A3019 RMK A01 T02080171  RH  079%=      5-min Rain = 0
KEA1 100743Z 25007KT 21/17 A3019 RMK A01 T02080171  RH  079%=      5-min Rain = 0
KEA1 100744Z 25005KT 21/17 A3019 RMK A01 T02080171  RH  079%=      5-min Rain = 0
KEA1 100745Z 24005KT 21/17 A3019 RMK A01 T02080171  RH  079%=      5-min Rain = 0
KEA1 100746Z 23004KT 21/17 A3019 RMK A01 T02090171  RH  079%=      5-min Rain = 0
KEA1 100747Z 22004KT 21/17 A3019 RMK A01 T02090172  RH  079%=      5-min Rain = 0
KEA1 100748Z 22004KT 21/17 A3018 RMK A01 T02090172  RH  079%=      5-min Rain = 0
KEA1 100749Z 23004KT 21/17 A3018 RMK A01 T02090172  RH  079%=      5-min Rain = 0
KEA1 100750Z 24004KT 21/17 A3018 RMK A01 T02090172  RH  079%=      5-min Rain = 0
KEA1 100751Z 25004KT 21/17 A3018 RMK A01 T02100172  RH  079%=      5-min Rain = 0
KEA1 100752Z 25004KT 21/17 A3018 RMK A01 T02090173  RH  079%=      5-min Rain = 0
KEA1 100753Z 25004KT 21/17 A3018 RMK A01 T02100173  RH  079%=      5-min Rain = 0
KEA1 100754Z 25004KT 21/17 A3018 RMK A01 T02100173  RH  080%=      5-min Rain = 0
KEA1 100755Z 26004KT 21/17 A3018 RMK A01 T02100173  RH  079%=      5-min Rain = 0
KEA1 100756Z 26004KT 21/17 A3018 RMK A01 T02100174  RH  079%=      5-min Rain = 0
KEA1 100757Z 26004KT 21/17 A3018 RMK A01 T02100174  RH  080%=      5-min Rain = 0
KEA1 100758Z 26004KT 21/17 A3018 RMK A01 T02100174  RH  080%=      5-min Rain = 0
KEA1 100759Z 26004KT 21/17 A3018 RMK A01 T02090173  RH  080%=      5-min Rain = 0
KEA1 100800Z 26004KT 21/17 A3018 RMK A01 T02080172  RH  080%=      5-min Rain = 0
KEA1 100801Z 27004KT 21/17 A3018 RMK A01 T02070172  RH  080%=      5-min Rain = 0
KEA1 100802Z 27004KT 21/17 A3018 RMK A01 T02070172  RH  081%=      5-min Rain = 0
KEA1 100803Z 27005KT 21/17 A3018 RMK A01 T02060172  RH  081%=      5-min Rain = 0
KEA1 100804Z 27005KT 21/17 A3018 RMK A01 T02050173  RH  082%=      5-min Rain = 0
KEA1 100805Z 27005KT 21/17 A3018 RMK A01 T02050173  RH  082%=      5-min Rain = 0
KEA1 100806Z 27006KT 20/17 A3018 RMK A01 T02040173  RH  082%=      5-min Rain = 0
KEA1 100807Z 27006KT 20/17 A3018 RMK A01 T02040173  RH  082%=      5-min Rain = 0
KEA1 100808Z 27006KT 20/17 A3018 RMK A01 T02040173  RH  082%=      5-min Rain = 0
KEA1 100809Z 27006KT 20/17 A3018 RMK A01 T02030173  RH  082%=      5-min Rain = 0
KEA1 100810Z 27006KT 20/17 A3018 RMK A01 T02030173  RH  083%=      5-min Rain = 0
KEA1 100811Z 27006KT 20/17 A3018 RMK A01 T02030173  RH  083%=      5-min Rain = 0
KEA1 100812Z 27006KT 20/17 A3018 RMK A01 T02030173  RH  083%=      5-min Rain = 0
KEA1 100813Z 27006KT 20/17 A3018 RMK A01 T02030173  RH  083%=      5-min Rain = 0
KEA1 100814Z 27006KT 20/17 A3018 RMK A01 T02020173  RH  083%=      5-min Rain = 0
KEA1 100815Z 27006KT 20/17 A3018 RMK A01 T02020173  RH  083%=      5-min Rain = 0
KEA1 100816Z 27006KT 20/17 A3018 RMK A01 T02020173  RH  084%=      5-min Rain = 0
KEA1 100817Z 27006KT 20/17 A3018 RMK A01 T02020173  RH  084%=      5-min Rain = 0
KEA1 100818Z 27006KT 20/17 A3018 RMK A01 T02020174  RH  084%=      5-min Rain = 0
KEA1 100819Z 28006KT 20/17 A3018 RMK A01 T02010173  RH  084%=      5-min Rain = 0
KEA1 100820Z 28006KT 20/17 A3018 RMK A01 T02020174  RH  084%=      5-min Rain = 0
KEA1 100821Z 28006KT 20/17 A3018 RMK A01 T02010173  RH  084%=      5-min Rain = 0
KEA1 100822Z 28005KT 20/17 A3018 RMK A01 T02020173  RH  083%=      5-min Rain = 0
KEA1 100823Z 28005KT 20/17 A3018 RMK A01 T02020173  RH  083%=      5-min Rain = 0
KEA1 100824Z 28005KT 20/17 A3018 RMK A01 T02030173  RH  083%=      5-min Rain = 0
KEA1 100825Z 28006KT 20/17 A3018 RMK A01 T02030173  RH  083%=      5-min Rain = 0
KEA1 100826Z 28005KT 20/17 A3018 RMK A01 T02020173  RH  083%=      5-min Rain = 0
KEA1 100827Z 28005KT 20/17 A3018 RMK A01 T02020173  RH  083%=      5-min Rain = 0
KEA1 100828Z 28005KT 20/17 A3018 RMK A01 T02010173  RH  084%=      5-min Rain = 0
KEA1 100829Z 28005KT 20/17 A3018 RMK A01 T02010173  RH  084%=      5-min Rain = 0
KEA1 100830Z 27005KT 20/17 A3018 RMK A01 T02010173  RH  084%=      5-min Rain = 0
KEA1 100831Z 27004KT 20/17 A3018 RMK A01 T02010173  RH  084%=      5-min Rain = 0
KEA1 100832Z 28003KT 20/17 A3017 RMK A01 T02020173  RH  084%=      5-min Rain = 0
KEA1 100833Z 27003KT 20/17 A3017 RMK A01 T02020173  RH  084%=      5-min Rain = 0
KEA1 100834Z 28003KT 20/17 A3017 RMK A01 T02020173  RH  083%=      5-min Rain = 0
KEA1 100835Z 27003KT 20/17 A3017 RMK A01 T02030173  RH  083%=      5-min Rain = 0
KEA1 100836Z 27003KT 20/17 A3017 RMK A01 T02030174  RH  083%=      5-min Rain = 0
KEA1 100837Z 27003KT 20/17 A3017 RMK A01 T02040174  RH  083%=      5-min Rain = 0
KEA1 100838Z 27004KT 20/17 A3017 RMK A01 T02040174  RH  083%=      5-min Rain = 0
KEA1 100839Z 28004KT 20/17 A3017 RMK A01 T02040174  RH  083%=      5-min Rain = 0
KEA1 100840Z 28004KT 20/17 A3017 RMK A01 T02040173  RH  082%=      5-min Rain = 0
KEA1 100841Z 28005KT 20/17 A3017 RMK A01 T02040173  RH  082%=      5-min Rain = 0
KEA1 100842Z 28005KT 20/17 A3017 RMK A01 T02040173  RH  082%=      5-min Rain = 0
KEA1 100843Z 28005KT 20/17 A3017 RMK A01 T02040173  RH  082%=      5-min Rain = 0
KEA1 100844Z 28004KT 20/17 A3017 RMK A01 T02040174  RH  083%=      5-min Rain = 0
KEA1 100845Z 28004KT 20/17 A3017 RMK A01 T02040174  RH  083%=      5-min Rain = 0
KEA1 100846Z 28004KT 20/18 A3017 RMK A01 T02040175  RH  083%=      5-min Rain = 0
KEA1 100847Z 29004KT 20/17 A3017 RMK A01 T02040174  RH  083%=      5-min Rain = 0
KEA1 100848Z 28004KT 20/18 A3017 RMK A01 T02040175  RH  083%=      5-min Rain = 0
KEA1 100849Z 28004KT 20/17 A3017 RMK A01 T02040174  RH  083%=      5-min Rain = 0
KEA1 100850Z 28004KT 20/17 A3017 RMK A01 T02040174  RH  083%=      5-min Rain = 0
KEA1 100851Z 28005KT 20/17 A3017 RMK A01 T02040174  RH  083%=      5-min Rain = 0
KEA1 100852Z 28006KT 20/17 A3017 RMK A01 T02030173  RH  083%=      5-min Rain = 0
KEA1 100853Z 28006KT 20/17 A3017 RMK A01 T02020173  RH  083%=      5-min Rain = 0
KEA1 100854Z 27006KT 20/17 A3017 RMK A01 T02010173  RH  084%=      5-min Rain = 0
KEA1 100855Z 27006KT 20/17 A3017 RMK A01 T02000172  RH  084%=      5-min Rain = 0
KEA1 100856Z 26005KT 20/17 A3017 RMK A01 T02000172  RH  084%=      5-min Rain = 0
KEA1 100857Z 26005KT 20/17 A3017 RMK A01 T01990172  RH  084%=      5-min Rain = 0
KEA1 100858Z 27004KT 20/17 A3017 RMK A01 T01980171  RH  084%=      5-min Rain = 0
KEA1 100859Z 27004KT 20/17 A3017 RMK A01 T01980172  RH  085%=      5-min Rain = 0
KEA1 100900Z 27004KT 20/17 A3016 RMK A01 T01990172  RH  084%=      5-min Rain = 0
KEA1 100901Z 27004KT 20/17 A3016 RMK A01 T01990172  RH  084%=      5-min Rain = 0
KEA1 100902Z 28003KT 20/17 A3016 RMK A01 T01990172  RH  084%=      5-min Rain = 0
KEA1 100903Z 28003KT 20/17 A3016 RMK A01 T02000173  RH  084%=      5-min Rain = 0
KEA1 100904Z 27003KT 20/17 A3016 RMK A01 T02000173  RH  084%=      5-min Rain = 0
KEA1 100905Z 26003KT 20/17 A3016 RMK A01 T02010172  RH  084%=      5-min Rain = 0
KEA1 100906Z 25003KT 20/17 A3016 RMK A01 T02000172  RH  084%=      5-min Rain = 0
KEA1 100907Z 26004KT 20/17 A3016 RMK A01 T01990171  RH  084%=      5-min Rain = 0
KEA1 100908Z 25003KT 20/17 A3016 RMK A01 T01980171  RH  084%=      5-min Rain = 0
KEA1 100909Z 24003KT 20/17 A3016 RMK A01 T01970171  RH  085%=      5-min Rain = 0
KEA1 100910Z 23003KT 20/17 A3016 RMK A01 T01970172  RH  085%=      5-min Rain = 0
KEA1 100911Z 19003KT 20/17 A3016 RMK A01 T01960170  RH  084%=      5-min Rain = 0
KEA1 100912Z 19002KT 20/17 A3016 RMK A01 T01950169  RH  085%=      5-min Rain = 0
KEA1 100913Z 19002KT 20/17 A3016 RMK A01 T01970171  RH  085%=      5-min Rain = 0
KEA1 100914Z 20002KT 20/17 A3016 RMK A01 T01980172  RH  084%=      5-min Rain = 0
KEA1 100915Z 19002KT 20/17 A3016 RMK A01 T02020173  RH  083%=      5-min Rain = 0
KEA1 100916Z 21002KT 21/17 A3016 RMK A01 T02050172  RH  082%=      5-min Rain = 0
KEA1 100917Z 22002KT 21/17 A3016 RMK A01 T02070173  RH  081%=      5-min Rain = 0
KEA1 100918Z 21002KT 21/17 A3016 RMK A01 T02090173  RH  080%=      5-min Rain = 0
KEA1 100919Z 23002KT 21/17 A3016 RMK A01 T02100172  RH  079%=      5-min Rain = 0
KEA1 100920Z 24001KT 21/17 A3016 RMK A01 T02090171  RH  079%=      5-min Rain = 0
KEA1 100921Z 25001KT 21/17 A3016 RMK A01 T02080171  RH  079%=      5-min Rain = 0
KEA1 100922Z 27001KT 21/17 A3016 RMK A01 T02070172  RH  080%=      5-min Rain = 0
KEA1 100923Z 23000KT 21/17 A3016 RMK A01 T02070173  RH  081%=      5-min Rain = 0
KEA1 100924Z 22000KT 21/17 A3016 RMK A01 T02080173  RH  081%=      5-min Rain = 0
KEA1 100925Z 24001KT 21/17 A3017 RMK A01 T02070173  RH  081%=      5-min Rain = 0
KEA1 100926Z 27001KT 21/17 A3017 RMK A01 T02080173  RH  080%=      5-min Rain = 0
KEA1 100927Z 27002KT 21/17 A3017 RMK A01 T02080173  RH  080%=      5-min Rain = 0
KEA1 100928Z 29001KT 21/17 A3017 RMK A01 T02090173  RH  080%=      5-min Rain = 0
KEA1 100929Z 27001KT 21/17 A3017 RMK A01 T02090173  RH  080%=      5-min Rain = 0
KEA1 100930Z 27002KT 21/17 A3017 RMK A01 T02100173  RH  080%=      5-min Rain = 0
KEA1 100931Z 26001KT 21/17 A3017 RMK A01 T02100173  RH  079%=      5-min Rain = 0
KEA1 100932Z 27001KT 21/17 A3017 RMK A01 T02070167  RH  077%=      5-min Rain = 0
KEA1 100933Z 32000KT 20/16 A3017 RMK A01 T02010164  RH  079%=      5-min Rain = 0
KEA1 100934Z 02000KT 20/16 A3017 RMK A01 T01950161  RH  081%=      5-min Rain = 0
KEA1 100935Z 04001KT 19/16 A3017 RMK A01 T01910161  RH  082%=      5-min Rain = 0
KEA1 100936Z 04001KT 19/16 A3017 RMK A01 T01890161  RH  084%=      5-min Rain = 0
KEA1 100937Z 03001KT 19/16 A3017 RMK A01 T01860161  RH  085%=      5-min Rain = 0
KEA1 100938Z 01001KT 19/16 A3017 RMK A01 T01850161  RH  086%=      5-min Rain = 0
KEA1 100939Z 01001KT 18/16 A3017 RMK A01 T01840162  RH  087%=      5-min Rain = 0
KEA1 100940Z 01000KT 18/16 A3017 RMK A01 T01840164  RH  088%=      5-min Rain = 0
KEA1 100941Z 00000KT 19/17 A3017 RMK A01 T01850167  RH  089%=      5-min Rain = 0
KEA1 100942Z 00001KT 19/17 A3017 RMK A01 T01870169  RH  090%=      5-min Rain = 0
KEA1 100943Z 02000KT 19/17 A3017 RMK A01 T01890171  RH  089%=      5-min Rain = 0
KEA1 100944Z 00000KT 19/17 A3017 RMK A01 T01900166  RH  086%=      5-min Rain = 0
KEA1 100945Z 00000KT 19/17 A3017 RMK A01 T01900169  RH  087%=      5-min Rain = 0
KEA1 100946Z 00000KT 19/17 A3017 RMK A01 T01900169  RH  088%=      5-min Rain = 0
KEA1 100947Z 00000KT 19/17 A3017 RMK A01 T01910171  RH  088%=      5-min Rain = 0
KEA1 100948Z 00000KT 19/17 A3017 RMK A01 T01920172  RH  088%=      5-min Rain = 0
KEA1 100949Z 00000KT 19/17 A3017 RMK A01 T01940172  RH  087%=      5-min Rain = 0
KEA1 100950Z 29001KT 19/17 A3016 RMK A01 T01940172  RH  087%=      5-min Rain = 0
KEA1 100951Z 29001KT 20/17 A3016 RMK A01 T01950173  RH  087%=      5-min Rain = 0
KEA1 100952Z 29001KT 20/17 A3016 RMK A01 T01950172  RH  086%=      5-min Rain = 0
KEA1 100953Z 29002KT 19/16 A3016 RMK A01 T01940163  RH  082%=      5-min Rain = 0
KEA1 100954Z 29001KT 19/16 A3016 RMK A01 T01900160  RH  083%=      5-min Rain = 0
KEA1 100955Z 29001KT 19/16 A3016 RMK A01 T01870160  RH  084%=      5-min Rain = 0
KEA1 100956Z 29002KT 19/16 A3016 RMK A01 T01860164  RH  087%=      5-min Rain = 0
KEA1 100957Z 29002KT 19/17 A3016 RMK A01 T01860167  RH  088%=      5-min Rain = 0
KEA1 100958Z 28002KT 19/17 A3016 RMK A01 T01860167  RH  088%=      5-min Rain = 0
KEA1 100959Z 29002KT 19/17 A3016 RMK A01 T01860166  RH  088%=      5-min Rain = 0
KEA1 101000Z 29002KT 19/17 A3016 RMK A01 T01860165  RH  088%=      5-min Rain = 0
KEA1 101001Z 28003KT 19/16 A3017 RMK A01 T01860164  RH  087%=      5-min Rain = 0
KEA1 101002Z 28003KT 19/16 A3017 RMK A01 T01850163  RH  087%=      5-min Rain = 0
KEA1 101003Z 28003KT 18/16 A3017 RMK A01 T01840162  RH  087%=      5-min Rain = 0
KEA1 101004Z 28004KT 18/16 A3017 RMK A01 T01830160  RH  087%=      5-min Rain = 0
KEA1 101005Z 28006KT 18/16 A3017 RMK A01 T01820161  RH  087%=      5-min Rain = 0
KEA1 101006Z 28010KT 18/16 A3017 RMK A01 T01810161  RH  088%=      5-min Rain = 0
KEA1 101007Z 27009KT 18/16 A3017 RMK A01 T01800163  RH  090%=      5-min Rain = 0
KEA1 101008Z 27006KT 18/17 A3017 RMK A01 T01810168  RH  092%=      5-min Rain = 0
KEA1 101009Z 27005KT 18/17 A3017 RMK A01 T01830171  RH  093%=      5-min Rain = 0
KEA1 101010Z 27005KT 19/17 A3017 RMK A01 T01850172  RH  092%=      5-min Rain = 0
KEA1 101011Z 27006KT 19/17 A3017 RMK A01 T01860172  RH  092%=      5-min Rain = 0
KEA1 101012Z 27006KT 19/17 A3017 RMK A01 T01860172  RH  092%=      5-min Rain = 0
KEA1 101013Z 27006KT 19/17 A3017 RMK A01 T01860172  RH  092%=      5-min Rain = 0
KEA1 101014Z 27007KT 19/17 A3017 RMK A01 T01850171  RH  092%=      5-min Rain = 0
KEA1 101015Z 26007KT 19/17 A3017 RMK A01 T01850171  RH  092%=      5-min Rain = 0
KEA1 101016Z 26006KT 18/17 A3017 RMK A01 T01840170  RH  092%=      5-min Rain = 0
KEA1 101017Z 26006KT 18/17 A3017 RMK A01 T01830170  RH  092%=      5-min Rain = 0
KEA1 101018Z 26006KT 18/17 A3017 RMK A01 T01830170  RH  092%=      5-min Rain = 0
KEA1 101019Z 27006KT 18/17 A3017 RMK A01 T01830169  RH  092%=      5-min Rain = 0
KEA1 101020Z 27006KT 18/17 A3017 RMK A01 T01830169  RH  092%=      5-min Rain = 0
KEA1 101021Z 27006KT 18/17 A3017 RMK A01 T01830169  RH  092%=      5-min Rain = 0
KEA1 101022Z 27006KT 18/17 A3017 RMK A01 T01820169  RH  092%=      5-min Rain = 0
KEA1 101023Z 28006KT 18/17 A3017 RMK A01 T01820168  RH  092%=      5-min Rain = 0
KEA1 101024Z 28006KT 18/17 A3017 RMK A01 T01810168  RH  092%=      5-min Rain = 0
KEA1 101025Z 28005KT 18/17 A3017 RMK A01 T01800167  RH  092%=      5-min Rain = 0
KEA1 101026Z 28005KT 18/17 A3017 RMK A01 T01800167  RH  092%=      5-min Rain = 0
KEA1 101027Z 28005KT 18/17 A3017 RMK A01 T01800167  RH  093%=      5-min Rain = 0
KEA1 101028Z 28004KT 18/17 A3017 RMK A01 T01800168  RH  093%=      5-min Rain = 0
KEA1 101029Z 28004KT 18/17 A3016 RMK A01 T01790168  RH  093%=      5-min Rain = 0
KEA1 101030Z 28004KT 18/17 A3016 RMK A01 T01790168  RH  093%=      5-min Rain = 0
KEA1 101031Z 28004KT 18/17 A3016 RMK A01 T01800168  RH  093%=      5-min Rain = 0
KEA1 101032Z 28004KT 18/17 A3016 RMK A01 T01800168  RH  093%=      5-min Rain = 0
KEA1 101033Z 28005KT 18/17 A3016 RMK A01 T01800168  RH  093%=      5-min Rain = 0
KEA1 101034Z 27005KT 18/17 A3016 RMK A01 T01800168  RH  093%=      5-min Rain = 0
KEA1 101035Z 27005KT 18/17 A3016 RMK A01 T01800167  RH  093%=      5-min Rain = 0
KEA1 101036Z 28005KT 18/17 A3016 RMK A01 T01790167  RH  093%=      5-min Rain = 0
KEA1 101037Z 28005KT 18/17 A3016 RMK A01 T01790167  RH  093%=      5-min Rain = 0
KEA1 101038Z 27005KT 18/17 A3016 RMK A01 T01790167  RH  093%=      5-min Rain = 0
KEA1 101039Z 27004KT 18/17 A3016 RMK A01 T01790167  RH  092%=      5-min Rain = 0
KEA1 101040Z 27004KT 18/17 A3016 RMK A01 T01790166  RH  092%=      5-min Rain = 0
KEA1 101041Z 27004KT 18/17 A3016 RMK A01 T01790166  RH  092%=      5-min Rain = 0
KEA1 101042Z 27005KT 18/17 A3016 RMK A01 T01790166  RH  092%=      5-min Rain = 0
KEA1 101043Z 26005KT 18/17 A3016 RMK A01 T01790166  RH  092%=      5-min Rain = 0
KEA1 101044Z 26005KT 18/17 A3016 RMK A01 T01790166  RH  092%=      5-min Rain = 0
KEA1 101045Z 26005KT 18/17 A3016 RMK A01 T01790166  RH  092%=      5-min Rain = 0
KEA1 101046Z 26006KT 18/17 A3016 RMK A01 T01790167  RH  093%=      5-min Rain = 0
KEA1 101047Z 26006KT 18/17 A3016 RMK A01 T01790167  RH  093%=      5-min Rain = 0
KEA1 101048Z 26006KT 18/17 A3016 RMK A01 T01790167  RH  093%=      5-min Rain = 0
KEA1 101049Z 26006KT 18/17 A3016 RMK A01 T01800168  RH  092%=      5-min Rain = 0
KEA1 101050Z 26006KT 18/17 A3016 RMK A01 T01810168  RH  092%=      5-min Rain = 0
KEA1 101051Z 26007KT 18/17 A3016 RMK A01 T01810168  RH  092%=      5-min Rain = 0
KEA1 101052Z 25008KT 18/17 A3016 RMK A01 T01810168  RH  092%=      5-min Rain = 0
KEA1 101053Z 25007KT 18/17 A3016 RMK A01 T01820168  RH  092%=      5-min Rain = 0
KEA1 101054Z 25006KT 18/17 A3016 RMK A01 T01820168  RH  092%=      5-min Rain = 0
KEA1 101055Z 25006KT 18/17 A3016 RMK A01 T01820168  RH  092%=      5-min Rain = 0
KEA1 101056Z 25006KT 18/17 A3016 RMK A01 T01820168  RH  091%=      5-min Rain = 0
KEA1 101057Z 25006KT 18/17 A3017 RMK A01 T01830168  RH  091%=      5-min Rain = 0
KEA1 101058Z 25006KT 18/17 A3017 RMK A01 T01840167  RH  090%=      5-min Rain = 0
KEA1 101059Z 24007KT 18/17 A3017 RMK A01 T01840167  RH  090%=      5-min Rain = 0
KEA1 101100Z 25006KT 18/17 A3017 RMK A01 T01840167  RH  090%=      5-min Rain = 0
KEA1 101101Z 25007KT 18/17 A3017 RMK A01 T01840167  RH  089%=      5-min Rain = 0
KEA1 101102Z 25007KT 18/17 A3017 RMK A01 T01840166  RH  089%=      5-min Rain = 0
KEA1 101103Z 25006KT 18/17 A3017 RMK A01 T01840165  RH  089%=      5-min Rain = 0
KEA1 101104Z 26006KT 19/17 A3017 RMK A01 T01850165  RH  088%=      5-min Rain = 0
KEA1 101105Z 26006KT 19/17 A3017 RMK A01 T01860165  RH  088%=      5-min Rain = 0
KEA1 101106Z 26005KT 19/17 A3017 RMK A01 T01860165  RH  088%=      5-min Rain = 0
KEA1 101107Z 26006KT 19/17 A3017 RMK A01 T01860166  RH  088%=      5-min Rain = 0
KEA1 101108Z 27006KT 19/17 A3017 RMK A01 T01860166  RH  088%=      5-min Rain = 0
KEA1 101109Z 27006KT 19/17 A3018 RMK A01 T01850166  RH  088%=      5-min Rain = 0
KEA1 101110Z 26006KT 18/17 A3018 RMK A01 T01840166  RH  089%=      5-min Rain = 0
KEA1 101111Z 26007KT 18/17 A3018 RMK A01 T01840165  RH  089%=      5-min Rain = 0
KEA1 101112Z 26007KT 18/17 A3018 RMK A01 T01840166  RH  089%=      5-min Rain = 0
KEA1 101113Z 26006KT 18/17 A3018 RMK A01 T01830166  RH  089%=      5-min Rain = 0
KEA1 101114Z 26005KT 18/17 A3018 RMK A01 T01830166  RH  090%=      5-min Rain = 0
KEA1 101115Z 26006KT 18/17 A3018 RMK A01 T01830166  RH  090%=      5-min Rain = 0
KEA1 101116Z 26005KT 18/17 A3018 RMK A01 T01830166  RH  090%=      5-min Rain = 0
KEA1 101117Z 26006KT 18/17 A3018 RMK A01 T01820165  RH  090%=      5-min Rain = 0
KEA1 101118Z 26005KT 18/17 A3018 RMK A01 T01820165  RH  090%=      5-min Rain = 0
KEA1 101119Z 26005KT 18/17 A3018 RMK A01 T01820165  RH  090%=      5-min Rain = 0
KEA1 101120Z 26005KT 18/17 A3018 RMK A01 T01820165  RH  090%=      5-min Rain = 0
KEA1 101121Z 26006KT 18/17 A3018 RMK A01 T01820165  RH  090%=      5-min Rain = 0
KEA1 101122Z 26005KT 18/17 A3018 RMK A01 T01810165  RH  090%=      5-min Rain = 0
KEA1 101123Z 26005KT 18/17 A3017 RMK A01 T01810165  RH  090%=      5-min Rain = 0
KEA1 101124Z 27006KT 18/16 A3017 RMK A01 T01810164  RH  090%=      5-min Rain = 0
KEA1 101125Z 27005KT 18/16 A3017 RMK A01 T01810164  RH  090%=      5-min Rain = 0
KEA1 101126Z 27005KT 18/16 A3017 RMK A01 T01810164  RH  090%=      5-min Rain = 0
KEA1 101127Z 28005KT 18/16 A3017 RMK A01 T01810164  RH  090%=      5-min Rain = 0
KEA1 101128Z 29005KT 18/16 A3017 RMK A01 T01810164  RH  090%=      5-min Rain = 0
KEA1 101129Z 28005KT 18/16 A3017 RMK A01 T01810164  RH  089%=      5-min Rain = 0
KEA1 101130Z 28005KT 18/16 A3017 RMK A01 T01810163  RH  089%=      5-min Rain = 0
KEA1 101131Z 28005KT 18/16 A3018 RMK A01 T01820163  RH  089%=      5-min Rain = 0
KEA1 101132Z 28005KT 18/16 A3018 RMK A01 T01820163  RH  089%=      5-min Rain = 0
KEA1 101133Z 28005KT 18/16 A3018 RMK A01 T01810162  RH  089%=      5-min Rain = 0
KEA1 101134Z 29005KT 18/16 A3018 RMK A01 T01820163  RH  089%=      5-min Rain = 0
KEA1 101135Z 29004KT 18/16 A3018 RMK A01 T01810162  RH  089%=      5-min Rain = 0
KEA1 101136Z 28004KT 18/16 A3017 RMK A01 T01810162  RH  089%=      5-min Rain = 0
KEA1 101137Z 27004KT 18/16 A3017 RMK A01 T01810162  RH  088%=      5-min Rain = 0
KEA1 101138Z 27004KT 18/16 A3017 RMK A01 T01820162  RH  088%=      5-min Rain = 0
KEA1 101139Z 26004KT 18/16 A3017 RMK A01 T01820162  RH  088%=      5-min Rain = 0
KEA1 101140Z 25004KT 18/16 A3017 RMK A01 T01820163  RH  089%=      5-min Rain = 0
KEA1 101141Z 25004KT 18/16 A3018 RMK A01 T01810162  RH  089%=      5-min Rain = 0
KEA1 101142Z 26004KT 18/16 A3018 RMK A01 T01810162  RH  089%=      5-min Rain = 0
KEA1 101143Z 26003KT 18/16 A3017 RMK A01 T01810162  RH  089%=      5-min Rain = 0
KEA1 101144Z 26003KT 18/16 A3017 RMK A01 T01810161  RH  088%=      5-min Rain = 0
KEA1 101145Z 27003KT 18/16 A3017 RMK A01 T01810161  RH  088%=      5-min Rain = 0
KEA1 101146Z 29003KT 18/16 A3017 RMK A01 T01810161  RH  088%=      5-min Rain = 0
KEA1 101147Z 30003KT 18/16 A3017 RMK A01 T01810161  RH  088%=      5-min Rain = 0
KEA1 101148Z 28003KT 18/16 A3017 RMK A01 T01820161  RH  088%=      5-min Rain = 0
KEA1 101149Z 25003KT 18/16 A3017 RMK A01 T01820160  RH  087%=      5-min Rain = 0
KEA1 101150Z 25005KT 18/16 A3017 RMK A01 T01810160  RH  087%=      5-min Rain = 0
KEA1 101151Z 25006KT 18/16 A3017 RMK A01 T01810160  RH  088%=      5-min Rain = 0
KEA1 101152Z 25005KT 18/16 A3017 RMK A01 T01800159  RH  088%=      5-min Rain = 0
KEA1 101153Z 25005KT 18/16 A3017 RMK A01 T01800160  RH  088%=      5-min Rain = 0
KEA1 101154Z 26004KT 18/16 A3017 RMK A01 T01800160  RH  088%=      5-min Rain = 0
KEA1 101155Z 26004KT 18/16 A3017 RMK A01 T01800160  RH  088%=      5-min Rain = 0
KEA1 101156Z 27004KT 18/16 A3017 RMK A01 T01800160  RH  088%=      5-min Rain = 0
KEA1 101157Z 27004KT 18/16 A3017 RMK A01 T01810160  RH  088%=      5-min Rain = 0
KEA1 101158Z 27005KT 18/16 A3017 RMK A01 T01810160  RH  087%=      5-min Rain = 0
KEA1 101159Z 27005KT 18/16 A3017 RMK A01 T01810160  RH  087%=      5-min Rain = 0
KEA1 101200Z 27005KT 18/16 A3017 RMK A01 T01810159  RH  087%=      5-min Rain = 0
KEA1 101201Z 27005KT 18/16 A3017 RMK A01 T01810159  RH  087%=      5-min Rain = 0
KEA1 101202Z 27004KT 18/16 A3017 RMK A01 T01810159  RH  087%=      5-min Rain = 0
KEA1 101203Z 27004KT 18/16 A3017 RMK A01 T01810159  RH  087%=      5-min Rain = 0
KEA1 101204Z 27005KT 18/16 A3017 RMK A01 T01800159  RH  087%=      5-min Rain = 0
KEA1 101205Z 27005KT 18/16 A3017 RMK A01 T01800159  RH  087%=      5-min Rain = 0
KEA1 101206Z 27005KT 18/16 A3017 RMK A01 T01790158  RH  087%=      5-min Rain = 0
KEA1 101207Z 27005KT 18/16 A3017 RMK A01 T01790158  RH  088%=      5-min Rain = 0
KEA1 101208Z 28005KT 18/16 A3017 RMK A01 T01790159  RH  088%=      5-min Rain = 0
KEA1 101209Z 28005KT 18/16 A3017 RMK A01 T01790158  RH  088%=      5-min Rain = 0
KEA1 101210Z 28005KT 18/16 A3017 RMK A01 T01790158  RH  088%=      5-min Rain = 0
KEA1 101211Z 29005KT 18/16 A3017 RMK A01 T01790159  RH  088%=      5-min Rain = 0
KEA1 101212Z 29005KT 18/16 A3017 RMK A01 T01790159  RH  088%=      5-min Rain = 0
KEA1 101213Z 28005KT 18/16 A3017 RMK A01 T01790159  RH  088%=      5-min Rain = 0
KEA1 101214Z 28005KT 18/16 A3017 RMK A01 T01790159  RH  088%=      5-min Rain = 0
KEA1 101215Z 28005KT 18/16 A3017 RMK A01 T01790158  RH  088%=      5-min Rain = 0
KEA1 101216Z 28005KT 18/16 A3017 RMK A01 T01790158  RH  088%=      5-min Rain = 0
KEA1 101217Z 29005KT 18/16 A3017 RMK A01 T01780158  RH  088%=      5-min Rain = 0
KEA1 101218Z 29004KT 18/16 A3017 RMK A01 T01780158  RH  088%=      5-min Rain = 0
KEA1 101219Z 30004KT 18/16 A3017 RMK A01 T01780158  RH  088%=      5-min Rain = 0
KEA1 101220Z 29004KT 18/16 A3017 RMK A01 T01780158  RH  088%=      5-min Rain = 0
KEA1 101221Z 29005KT 18/16 A3017 RMK A01 T01780158  RH  088%=      5-min Rain = 0
KEA1 101222Z 29004KT 18/16 A3017 RMK A01 T01780157  RH  088%=      5-min Rain = 0
KEA1 101223Z 28005KT 18/16 A3017 RMK A01 T01780158  RH  088%=      5-min Rain = 0
KEA1 101224Z 28005KT 18/16 A3017 RMK A01 T01780157  RH  088%=      5-min Rain = 0
KEA1 101225Z 27005KT 18/16 A3017 RMK A01 T01780157  RH  087%=      5-min Rain = 0
KEA1 101226Z 27005KT 18/16 A3017 RMK A01 T01780157  RH  087%=      5-min Rain = 0
KEA1 101227Z 26005KT 18/16 A3018 RMK A01 T01780157  RH  087%=      5-min Rain = 0
KEA1 101228Z 25005KT 18/16 A3017 RMK A01 T01780158  RH  088%=      5-min Rain = 0
KEA1 101229Z 25005KT 18/16 A3018 RMK A01 T01780158  RH  088%=      5-min Rain = 0
KEA1 101230Z 25005KT 18/16 A3018 RMK A01 T01780158  RH  088%=      5-min Rain = 0
KEA1 101231Z 25005KT 18/16 A3017 RMK A01 T01780158  RH  088%=      5-min Rain = 0
KEA1 101232Z 25005KT 18/16 A3017 RMK A01 T01780158  RH  088%=      5-min Rain = 0
KEA1 101233Z 26005KT 18/16 A3018 RMK A01 T01780159  RH  088%=      5-min Rain = 0
KEA1 101234Z 26006KT 18/16 A3018 RMK A01 T01790159  RH  088%=      5-min Rain = 0
KEA1 101235Z 26005KT 18/16 A3018 RMK A01 T01800159  RH  087%=      5-min Rain = 0
KEA1 101236Z 26005KT 18/16 A3018 RMK A01 T01800159  RH  087%=      5-min Rain = 0
KEA1 101237Z 26005KT 18/16 A3018 RMK A01 T01810159  RH  087%=      5-min Rain = 0
KEA1 101238Z 26005KT 18/16 A3018 RMK A01 T01800158  RH  087%=      5-min Rain = 0
KEA1 101239Z 26005KT 18/16 A3018 RMK A01 T01810159  RH  087%=      5-min Rain = 0
KEA1 101240Z 26005KT 18/16 A3017 RMK A01 T01800158  RH  087%=      5-min Rain = 0
KEA1 101241Z 26004KT 18/16 A3018 RMK A01 T01810159  RH  087%=      5-min Rain = 0
KEA1 101242Z 26004KT 18/16 A3018 RMK A01 T01810159  RH  087%=      5-min Rain = 0
KEA1 101243Z 26004KT 18/16 A3018 RMK A01 T01810159  RH  087%=      5-min Rain = 0
KEA1 101244Z 25004KT 18/16 A3018 RMK A01 T01810159  RH  087%=      5-min Rain = 0
KEA1 101245Z 25004KT 18/16 A3018 RMK A01 T01810159  RH  087%=      5-min Rain = 0
KEA1 101246Z 25004KT 18/16 A3018 RMK A01 T01820160  RH  087%=      5-min Rain = 0
KEA1 101247Z 25004KT 18/16 A3018 RMK A01 T01820160  RH  087%=      5-min Rain = 0
KEA1 101248Z 25004KT 18/16 A3018 RMK A01 T01830161  RH  087%=      5-min Rain = 0
KEA1 101249Z 25004KT 18/16 A3018 RMK A01 T01840162  RH  087%=      5-min Rain = 0
KEA1 101250Z 25004KT 18/16 A3018 RMK A01 T01840162  RH  087%=      5-min Rain = 0
KEA1 101251Z 25005KT 19/16 A3018 RMK A01 T01850162  RH  086%=      5-min Rain = 0
KEA1 101252Z 25004KT 19/16 A3018 RMK A01 T01850162  RH  086%=      5-min Rain = 0
KEA1 101253Z 25005KT 19/16 A3018 RMK A01 T01860161  RH  086%=      5-min Rain = 0
KEA1 101254Z 25004KT 19/16 A3018 RMK A01 T01880162  RH  085%=      5-min Rain = 0
KEA1 101255Z 25004KT 19/16 A3018 RMK A01 T01880162  RH  085%=      5-min Rain = 0
KEA1 101256Z 25005KT 19/16 A3018 RMK A01 T01890162  RH  084%=      5-min Rain = 0
KEA1 101257Z 25004KT 19/16 A3018 RMK A01 T01900162  RH  084%=      5-min Rain = 0
KEA1 101258Z 25005KT 19/16 A3018 RMK A01 T01910162  RH  083%=      5-min Rain = 0
KEA1 101259Z 25005KT 19/16 A3018 RMK A01 T01920162  RH  083%=      5-min Rain = 0
KEA1 101300Z 25004KT 19/16 A3018 RMK A01 T01930162  RH  083%=      5-min Rain = 0
KEA1 101301Z 25004KT 19/16 A3018 RMK A01 T01930163  RH  082%=      5-min Rain = 0
KEA1 101302Z 25004KT 19/16 A3019 RMK A01 T01940162  RH  082%=      5-min Rain = 0
KEA1 101303Z 25004KT 20/16 A3019 RMK A01 T01960163  RH  081%=      5-min Rain = 0
KEA1 101304Z 25004KT 20/16 A3019 RMK A01 T01970164  RH  081%=      5-min Rain = 0
KEA1 101305Z 26004KT 20/16 A3019 RMK A01 T01980163  RH  080%=      5-min Rain = 0
KEA1 101306Z 25004KT 20/16 A3019 RMK A01 T01990163  RH  080%=      5-min Rain = 0
KEA1 101307Z 25004KT 20/16 A3019 RMK A01 T01990161  RH  079%=      5-min Rain = 0
KEA1 101308Z 26004KT 20/16 A3019 RMK A01 T01990163  RH  079%=      5-min Rain = 0
KEA1 101309Z 26004KT 20/16 A3019 RMK A01 T02000161  RH  079%=      5-min Rain = 0
KEA1 101310Z 26004KT 20/16 A3019 RMK A01 T02000162  RH  079%=      5-min Rain = 0
KEA1 101311Z 26004KT 20/16 A3019 RMK A01 T02000164  RH  079%=      5-min Rain = 0
KEA1 101312Z 25005KT 20/16 A3019 RMK A01 T02010163  RH  079%=      5-min Rain = 0
KEA1 101313Z 26006KT 20/16 A3019 RMK A01 T02020164  RH  079%=      5-min Rain = 0
KEA1 101314Z 26007KT 20/16 A3019 RMK A01 T02020164  RH  079%=      5-min Rain = 0
KEA1 101315Z 26006KT 20/16 A3019 RMK A01 T02030164  RH  078%=      5-min Rain = 0
KEA1 101316Z 25006KT 20/17 A3019 RMK A01 T02040165  RH  079%=      5-min Rain = 0
KEA1 101317Z 25005KT 20/17 A3019 RMK A01 T02040167  RH  079%=      5-min Rain = 0
KEA1 101318Z 25006KT 21/17 A3019 RMK A01 T02050167  RH  079%=      5-min Rain = 0
KEA1 101319Z 25007KT 21/17 A3019 RMK A01 T02060167  RH  078%=      5-min Rain = 0
KEA1 101320Z 26007KT 21/17 A3019 RMK A01 T02060167  RH  078%=      5-min Rain = 0
KEA1 101321Z 26007KT 21/17 A3019 RMK A01 T02070167  RH  078%=      5-min Rain = 0
KEA1 101322Z 25006KT 21/17 A3019 RMK A01 T02070166  RH  077%=      5-min Rain = 0
KEA1 101323Z 26008KT 21/17 A3019 RMK A01 T02080167  RH  078%=      5-min Rain = 0
KEA1 101324Z 25008KT 21/17 A3019 RMK A01 T02080166  RH  077%=      5-min Rain = 0
KEA1 101325Z 25007KT 21/17 A3019 RMK A01 T02080167  RH  077%=      5-min Rain = 0
KEA1 101326Z 26007KT 21/17 A3019 RMK A01 T02080168  RH  078%=      5-min Rain = 0
KEA1 101327Z 26006KT 21/17 A3019 RMK A01 T02090168  RH  078%=      5-min Rain = 0
KEA1 101328Z 26005KT 21/17 A3019 RMK A01 T02090169  RH  078%=      5-min Rain = 0
KEA1 101329Z 25005KT 21/17 A3019 RMK A01 T02100170  RH  078%=      5-min Rain = 0
KEA1 101330Z 25005KT 21/17 A3019 RMK A01 T02110170  RH  077%=      5-min Rain = 0
KEA1 101331Z 26005KT 21/17 A3019 RMK A01 T02120170  RH  077%=      5-min Rain = 0
KEA1 101332Z 26005KT 21/17 A3019 RMK A01 T02120169  RH  076%=      5-min Rain = 0
KEA1 101333Z 26005KT 21/17 A3019 RMK A01 T02120170  RH  077%=      5-min Rain = 0
KEA1 101334Z 25005KT 21/17 A3019 RMK A01 T02130169  RH  076%=      5-min Rain = 0
KEA1 101335Z 25005KT 21/17 A3019 RMK A01 T02130168  RH  075%=      5-min Rain = 0
KEA1 101336Z 27004KT 21/17 A3019 RMK A01 T02140167  RH  075%=      5-min Rain = 0
KEA1 101337Z 27004KT 22/17 A3019 RMK A01 T02150168  RH  075%=      5-min Rain = 0
KEA1 101338Z 27003KT 22/17 A3019 RMK A01 T02160169  RH  074%=      5-min Rain = 0
KEA1 101339Z 26004KT 22/17 A3019 RMK A01 T02180169  RH  074%=      5-min Rain = 0
KEA1 101340Z 26005KT 22/17 A3019 RMK A01 T02190168  RH  073%=      5-min Rain = 0
KEA1 101341Z 26005KT 22/17 A3019 RMK A01 T02180166  RH  072%=      5-min Rain = 0
KEA1 101342Z 28005KT 22/17 A3019 RMK A01 T02180167  RH  073%=      5-min Rain = 0
KEA1 101343Z 28006KT 22/17 A3019 RMK A01 T02180167  RH  073%=      5-min Rain = 0
KEA1 101344Z 28005KT 22/17 A3019 RMK A01 T02190167  RH  072%=      5-min Rain = 0
KEA1 101345Z 28006KT 22/17 A3019 RMK A01 T02190165  RH  071%=      5-min Rain = 0
KEA1 101346Z 27006KT 22/17 A3019 RMK A01 T02190166  RH  072%=      5-min Rain = 0
KEA1 101347Z 27007KT 22/17 A3019 RMK A01 T02190166  RH  072%=      5-min Rain = 0
KEA1 101348Z 28007KT 22/17 A3019 RMK A01 T02200167  RH  072%=      5-min Rain = 0
KEA1 101349Z 28007KT 22/17 A3019 RMK A01 T02190167  RH  072%=      5-min Rain = 0
KEA1 101350Z 28007KT 22/17 A3019 RMK A01 T02190167  RH  072%=      5-min Rain = 0
KEA1 101351Z 27007KT 22/17 A3019 RMK A01 T02190168  RH  073%=      5-min Rain = 0
KEA1 101352Z 27006KT 22/17 A3019 RMK A01 T02190168  RH  073%=      5-min Rain = 0
KEA1 101353Z 27005KT 22/17 A3019 RMK A01 T02200169  RH  073%=      5-min Rain = 0
KEA1 101354Z 28007KT 22/17 A3019 RMK A01 T02210166  RH  071%=      5-min Rain = 0
KEA1 101355Z 28007KT 22/16 A3019 RMK A01 T02220164  RH  069%=      5-min Rain = 0
KEA1 101356Z 27007KT 22/17 A3019 RMK A01 T02230166  RH  070%=      5-min Rain = 0
KEA1 101357Z 28007KT 22/17 A3019 RMK A01 T02240165  RH  069%=      5-min Rain = 0
KEA1 101358Z 28007KT 22/16 A3019 RMK A01 T02240164  RH  069%=      5-min Rain = 0
KEA1 101359Z 28007KT 22/17 A3019 RMK A01 T02240165  RH  069%=      5-min Rain = 0
KEA1 101400Z 27007KT 23/17 A3019 RMK A01 T02250165  RH  069%=      5-min Rain = 0
KEA1 101401Z 28006KT 23/16 A3019 RMK A01 T02260164  RH  068%=      5-min Rain = 0
KEA1 101402Z 29007KT 23/16 A3019 RMK A01 T02260164  RH  068%=      5-min Rain = 0
KEA1 101403Z 29006KT 23/16 A3019 RMK A01 T02270162  RH  067%=      5-min Rain = 0
KEA1 101404Z 27007KT 23/17 A3019 RMK A01 T02270165  RH  068%=      5-min Rain = 0
KEA1 101405Z 28006KT 23/17 A3019 RMK A01 T02270165  RH  068%=      5-min Rain = 0
KEA1 101406Z 29006KT 23/17 A3019 RMK A01 T02280165  RH  068%=      5-min Rain = 0
KEA1 101407Z 28005KT 23/16 A3019 RMK A01 T02280162  RH  066%=      5-min Rain = 0
KEA1 101408Z 29006KT 23/16 A3019 RMK A01 T02290163  RH  066%=      5-min Rain = 0
KEA1 101409Z 29006KT 23/16 A3019 RMK A01 T02310162  RH  065%=      5-min Rain = 0
KEA1 101410Z 29008KT 23/16 A3019 RMK A01 T02320163  RH  065%=      5-min Rain = 0
KEA1 101411Z 28007KT 23/16 A3019 RMK A01 T02320161  RH  064%=      5-min Rain = 0
KEA1 101412Z 29007KT 23/16 A3019 RMK A01 T02300161  RH  065%=      5-min Rain = 0
KEA1 101413Z 29008KT 23/16 A3019 RMK A01 T02300161  RH  065%=      5-min Rain = 0
KEA1 101414Z 28007KT 23/16 A3019 RMK A01 T02300161  RH  065%=      5-min Rain = 0
KEA1 101415Z 28007KT 23/16 A3019 RMK A01 T02300160  RH  065%=      5-min Rain = 0
KEA1 101416Z 29006KT 23/16 A3019 RMK A01 T02300161  RH  065%=      5-min Rain = 0
KEA1 101417Z 31006KT 23/16 A3019 RMK A01 T02300162  RH  065%=      5-min Rain = 0
KEA1 101418Z 30005KT 23/16 A3019 RMK A01 T02300162  RH  066%=      5-min Rain = 0
KEA1 101419Z 29005KT 23/16 A3019 RMK A01 T02310162  RH  065%=      5-min Rain = 0
KEA1 101420Z 28006KT 23/16 A3019 RMK A01 T02310162  RH  065%=      5-min Rain = 0
KEA1 101421Z 29007KT 23/16 A3019 RMK A01 T02310163  RH  065%=      5-min Rain = 0
KEA1 101422Z 30007KT 23/16 A3019 RMK A01 T02320161  RH  064%=      5-min Rain = 0
KEA1 101423Z 29007KT 23/16 A3019 RMK A01 T02320161  RH  065%=      5-min Rain = 0
KEA1 101424Z 29006KT 23/16 A3019 RMK A01 T02320161  RH  064%=      5-min Rain = 0
KEA1 101425Z 30007KT 23/16 A3019 RMK A01 T02330163  RH  065%=      5-min Rain = 0
KEA1 101426Z 29007KT 24/16 A302 RMK A01 T02350161  RH  063%=      5-min Rain = 0
KEA1 101427Z 29008KT 24/16 A302 RMK A01 T02360160  RH  062%=      5-min Rain = 0
KEA1 101428Z 30007KT 24/16 A302 RMK A01 T02360160  RH  062%=      5-min Rain = 0
KEA1 101429Z 30009KT 24/16 A302 RMK A01 T02350159  RH  062%=      5-min Rain = 0
KEA1 101430Z 29008KT 23/16 A302 RMK A01 T02340159  RH  062%=      5-min Rain = 0
KEA1 101431Z 29008KT 23/16 A302 RMK A01 T02330159  RH  063%=      5-min Rain = 0
KEA1 101432Z 31007KT 23/16 A302 RMK A01 T02330159  RH  063%=      5-min Rain = 0
KEA1 101433Z 30007KT 23/16 A302 RMK A01 T02340161  RH  063%=      5-min Rain = 0
KEA1 101434Z 30007KT 24/16 A302 RMK A01 T02350159  RH  062%=      5-min Rain = 0
KEA1 101435Z 30007KT 24/16 A302 RMK A01 T02350159  RH  063%=      5-min Rain = 0
KEA1 101436Z 31007KT 23/16 A302 RMK A01 T02340159  RH  063%=      5-min Rain = 0
KEA1 101437Z 31008KT 23/16 A302 RMK A01 T02340160  RH  063%=      5-min Rain = 0
KEA1 101438Z 30008KT 23/16 A302 RMK A01 T02340160  RH  063%=      5-min Rain = 0
KEA1 101439Z 30006KT 24/16 A302 RMK A01 T02350159  RH  062%=      5-min Rain = 0
KEA1 101440Z 30007KT 24/16 A302 RMK A01 T02360161  RH  063%=      5-min Rain = 0
KEA1 101441Z 30008KT 24/16 A302 RMK A01 T02370159  RH  062%=      5-min Rain = 0
KEA1 101442Z 30006KT 24/16 A302 RMK A01 T02360161  RH  063%=      5-min Rain = 0
KEA1 101443Z 29007KT 24/16 A302 RMK A01 T02370161  RH  062%=      5-min Rain = 0
KEA1 101444Z 29009KT 24/16 A302 RMK A01 T02380162  RH  062%=      5-min Rain = 0
KEA1 101445Z 30008KT 24/16 A302 RMK A01 T02380161  RH  062%=      5-min Rain = 0
KEA1 101446Z 30009KT 24/16 A302 RMK A01 T02380162  RH  062%=      5-min Rain = 0
KEA1 101447Z 30007KT 24/16 A302 RMK A01 T02390161  RH  062%=      5-min Rain = 0
KEA1 101448Z 31009KT 24/16 A302 RMK A01 T02390162  RH  062%=      5-min Rain = 0
KEA1 101449Z 30009KT 24/16 A302 RMK A01 T02400162  RH  062%=      5-min Rain = 0
KEA1 101450Z 29007KT 24/16 A302 RMK A01 T02400162  RH  062%=      5-min Rain = 0
KEA1 101451Z 29006KT 24/16 A302 RMK A01 T02410164  RH  062%=      5-min Rain = 0
KEA1 101452Z 29006KT 24/16 A302 RMK A01 T02430163  RH  061%=      5-min Rain = 0
KEA1 101453Z 32008KT 24/16 A302 RMK A01 T02440163  RH  061%=      5-min Rain = 0
KEA1 101454Z 33008KT 24/16 A302 RMK A01 T02440160  RH  060%=      5-min Rain = 0
KEA1 101455Z 32006KT 24/16 A302 RMK A01 T02430162  RH  061%=      5-min Rain = 0
KEA1 101456Z 33007KT 25/16 A302 RMK A01 T02450164  RH  061%=      5-min Rain = 0
KEA1 101457Z 32007KT 25/16 A302 RMK A01 T02470162  RH  059%=      5-min Rain = 0
KEA1 101458Z 31008KT 25/16 A302 RMK A01 T02460161  RH  059%=      5-min Rain = 0
KEA1 101459Z 31008KT 25/16 A302 RMK A01 T02450162  RH  060%=      5-min Rain = 0
KEA1 101500Z 31006KT 25/16 A302 RMK A01 T02470161  RH  059%=      5-min Rain = 0
KEA1 101501Z 30004KT 25/16 A302 RMK A01 T02470160  RH  058%=      5-min Rain = 0
KEA1 101502Z 30008KT 25/16 A302 RMK A01 T02460161  RH  059%=      5-min Rain = 0
KEA1 101503Z 31007KT 25/16 A302 RMK A01 T02480162  RH  059%=      5-min Rain = 0
KEA1 101504Z 31005KT 25/16 A302 RMK A01 T02490161  RH  058%=      5-min Rain = 0
KEA1 101505Z 33007KT 25/16 A302 RMK A01 T02470159  RH  058%=      5-min Rain = 0
KEA1 101506Z 34007KT 25/16 A302 RMK A01 T02470160  RH  059%=      5-min Rain = 0
KEA1 101507Z 32006KT 25/16 A302 RMK A01 T02470162  RH  059%=      5-min Rain = 0
KEA1 101508Z 31007KT 25/16 A302 RMK A01 T02490161  RH  058%=      5-min Rain = 0
KEA1 101509Z 30006KT 25/16 A302 RMK A01 T02480160  RH  058%=      5-min Rain = 0
KEA1 101510Z 33006KT 25/16 A302 RMK A01 T02480162  RH  059%=      5-min Rain = 0
KEA1 101511Z 34007KT 25/16 A302 RMK A01 T02510160  RH  057%=      5-min Rain = 0
KEA1 101512Z 34006KT 25/16 A302 RMK A01 T02520159  RH  057%=      5-min Rain = 0
KEA1 101513Z 33007KT 25/16 A302 RMK A01 T02490157  RH  057%=      5-min Rain = 0
KEA1 101514Z 33008KT 25/16 A302 RMK A01 T02460157  RH  058%=      5-min Rain = 0
KEA1 101515Z 33007KT 24/16 A302 RMK A01 T02440158  RH  059%=      5-min Rain = 0
KEA1 101516Z 31004KT 24/16 A302 RMK A01 T02430157  RH  059%=      5-min Rain = 0
KEA1 101517Z 30005KT 24/16 A302 RMK A01 T02420159  RH  060%=      5-min Rain = 0
KEA1 101518Z 35008KT 25/16 A302 RMK A01 T02460161  RH  059%=      5-min Rain = 0
KEA1 101519Z 35007KT 25/16 A302 RMK A01 T02500159  RH  057%=      5-min Rain = 0
KEA1 101520Z 34005KT 25/16 A302 RMK A01 T02510159  RH  057%=      5-min Rain = 0
KEA1 101521Z 32005KT 25/16 A302 RMK A01 T02540162  RH  057%=      5-min Rain = 0
KEA1 101522Z 32007KT 26/16 A302 RMK A01 T02570161  RH  056%=      5-min Rain = 0
KEA1 101523Z 31006KT 26/16 A302 RMK A01 T02590160  RH  055%=      5-min Rain = 0
KEA1 101524Z 32005KT 26/16 A302 RMK A01 T02570158  RH  054%=      5-min Rain = 0
KEA1 101525Z 31007KT 26/16 A302 RMK A01 T02560160  RH  055%=      5-min Rain = 0
KEA1 101526Z 30005KT 26/16 A302 RMK A01 T02560159  RH  055%=      5-min Rain = 0
KEA1 101527Z 31006KT 26/16 A302 RMK A01 T02560159  RH  055%=      5-min Rain = 0
KEA1 101528Z 31004KT 26/16 A302 RMK A01 T02550158  RH  055%=      5-min Rain = 0
KEA1 101529Z 30005KT 25/16 A302 RMK A01 T02530157  RH  055%=      5-min Rain = 0
KEA1 101530Z 29004KT 25/16 A302 RMK A01 T02520158  RH  056%=      5-min Rain = 0
KEA1 101531Z 31008KT 25/16 A302 RMK A01 T02520158  RH  056%=      5-min Rain = 0
KEA1 101532Z 32006KT 25/16 A302 RMK A01 T02490157  RH  056%=      5-min Rain = 0
KEA1 101533Z 31005KT 25/16 A302 RMK A01 T02480157  RH  057%=      5-min Rain = 0
KEA1 101534Z 31005KT 25/16 A302 RMK A01 T02470157  RH  057%=      5-min Rain = 0
KEA1 101535Z 33004KT 25/16 A302 RMK A01 T02470158  RH  058%=      5-min Rain = 0
KEA1 101536Z 34004KT 25/16 A302 RMK A01 T02470159  RH  058%=      5-min Rain = 0
KEA1 101537Z 32003KT 25/16 A302 RMK A01 T02480159  RH  057%=      5-min Rain = 0
KEA1 101538Z 32004KT 25/16 A302 RMK A01 T02480159  RH  058%=      5-min Rain = 0
KEA1 101539Z 32005KT 25/16 A302 RMK A01 T02490158  RH  057%=      5-min Rain = 0
KEA1 101540Z 32005KT 25/16 A302 RMK A01 T02490157  RH  057%=      5-min Rain = 0
KEA1 101541Z 33003KT 25/16 A302 RMK A01 T02490159  RH  057%=      5-min Rain = 0
KEA1 101542Z 34003KT 25/16 A302 RMK A01 T02490158  RH  057%=      5-min Rain = 0
KEA1 101543Z 30005KT 25/16 A302 RMK A01 T02490159  RH  057%=      5-min Rain = 0
KEA1 101544Z 30005KT 25/16 A302 RMK A01 T02510160  RH  057%=      5-min Rain = 0
KEA1 101545Z 31005KT 25/16 A302 RMK A01 T02520160  RH  057%=      5-min Rain = 0
KEA1 101546Z 29004KT 25/16 A302 RMK A01 T02540160  RH  056%=      5-min Rain = 0
KEA1 101547Z 31004KT 26/16 A302 RMK A01 T02550161  RH  056%=      5-min Rain = 0
KEA1 101548Z 35003KT 26/17 A302 RMK A01 T02590165  RH  056%=      5-min Rain = 0
KEA1 101549Z 32002KT 26/16 A302 RMK A01 T02610162  RH  055%=      5-min Rain = 0
KEA1 101550Z 33003KT 26/16 A302 RMK A01 T02610160  RH  054%=      5-min Rain = 0
KEA1 101551Z 01004KT 26/16 A302 RMK A01 T02590160  RH  054%=      5-min Rain = 0
KEA1 101552Z 02004KT 26/16 A302 RMK A01 T02600159  RH  054%=      5-min Rain = 0
KEA1 101553Z 36003KT 26/16 A302 RMK A01 T02600160  RH  054%=      5-min Rain = 0
KEA1 101554Z 27004KT 26/16 A302 RMK A01 T02620163  RH  054%=      5-min Rain = 0
KEA1 101555Z 29004KT 26/16 A302 RMK A01 T02640162  RH  053%=      5-min Rain = 0
KEA1 101556Z 28003KT 26/16 A302 RMK A01 T02640160  RH  053%=      5-min Rain = 0
KEA1 101557Z 16001KT 26/16 A302 RMK A01 T02610158  RH  053%=      5-min Rain = 0
KEA1 101558Z 23001KT 26/16 A302 RMK A01 T02600160  RH  054%=      5-min Rain = 0
KEA1 101559Z 32002KT 26/16 A302 RMK A01 T02610161  RH  054%=      5-min Rain = 0
KEA1 101600Z 29004KT 26/16 A302 RMK A01 T02640162  RH  054%=      5-min Rain = 0
KEA1 101601Z 28005KT 26/16 A302 RMK A01 T02640159  RH  052%=      5-min Rain = 0
KEA1 101602Z 29004KT 26/16 A302 RMK A01 T02620158  RH  053%=      5-min Rain = 0
KEA1 101603Z 29005KT 26/16 A302 RMK A01 T02600159  RH  054%=      5-min Rain = 0
KEA1 101604Z 30004KT 26/16 A302 RMK A01 T02610160  RH  054%=      5-min Rain = 0
KEA1 101605Z 33003KT 26/16 A302 RMK A01 T02630162  RH  054%=      5-min Rain = 0
KEA1 101606Z 32002KT 27/17 A302 RMK A01 T02660165  RH  054%=      5-min Rain = 0
KEA1 101607Z 30003KT 27/17 A302 RMK A01 T02690165  RH  053%=      5-min Rain = 0
KEA1 101608Z 33005KT 27/16 A302 RMK A01 T02720164  RH  052%=      5-min Rain = 0
KEA1 101609Z 33005KT 27/16 A302 RMK A01 T02740163  RH  051%=      5-min Rain = 0
KEA1 101610Z 33003KT 28/16 A302 RMK A01 T02760163  RH  050%=      5-min Rain = 0
KEA1 101611Z 29004KT 28/16 A302 RMK A01 T02750164  RH  051%=      5-min Rain = 0
KEA1 101612Z 31006KT 28/16 A302 RMK A01 T02760162  RH  050%=      5-min Rain = 0
KEA1 101613Z 33004KT 27/16 A302 RMK A01 T02730160  RH  050%=      5-min Rain = 0
KEA1 101614Z 33003KT 27/16 A302 RMK A01 T02720160  RH  050%=      5-min Rain = 0
KEA1 101615Z 31004KT 27/16 A302 RMK A01 T02720160  RH  050%=      5-min Rain = 0
KEA1 101616Z 33002KT 27/16 A302 RMK A01 T02730159  RH  050%=      5-min Rain = 0
KEA1 101617Z 33002KT 27/16 A302 RMK A01 T02720161  RH  051%=      5-min Rain = 0
KEA1 101618Z 30006KT 27/16 A302 RMK A01 T02730161  RH  050%=      5-min Rain = 0
KEA1 101619Z 33004KT 27/16 A302 RMK A01 T02740162  RH  050%=      5-min Rain = 0
KEA1 101620Z 29000KT 27/16 A302 RMK A01 T02740161  RH  050%=      5-min Rain = 0
KEA1 101621Z 31005KT 28/16 A302 RMK A01 T02750164  RH  051%=      5-min Rain = 0
KEA1 101622Z 31005KT 28/17 A302 RMK A01 T02800166  RH  050%=      5-min Rain = 0
KEA1 101623Z 28003KT 28/16 A302 RMK A01 T02810161  RH  048%=      5-min Rain = 0
KEA1 101624Z 28003KT 28/16 A302 RMK A01 T02770160  RH  049%=      5-min Rain = 0
KEA1 101625Z 31004KT 28/16 A302 RMK A01 T02760162  RH  050%=      5-min Rain = 0
KEA1 101626Z 31005KT 28/16 A302 RMK A01 T02760162  RH  050%=      5-min Rain = 0
KEA1 101627Z 32004KT 28/16 A302 RMK A01 T02770162  RH  049%=      5-min Rain = 0
KEA1 101628Z 34004KT 28/16 A302 RMK A01 T02790163  RH  049%=      5-min Rain = 0
KEA1 101629Z 34003KT 28/16 A302 RMK A01 T02820164  RH  049%=      5-min Rain = 0
KEA1 101630Z 32002KT 28/16 A302 RMK A01 T02830161  RH  048%=      5-min Rain = 0
KEA1 101631Z 36001KT 28/16 A302 RMK A01 T02810162  RH  048%=      5-min Rain = 0
KEA1 101632Z 32001KT 28/16 A302 RMK A01 T02820162  RH  048%=      5-min Rain = 0
KEA1 101633Z 30003KT 28/17 A302 RMK A01 T02840165  RH  048%=      5-min Rain = 0
KEA1 101634Z 28005KT 29/17 A302 RMK A01 T02880165  RH  047%=      5-min Rain = 0
KEA1 101635Z 30006KT 29/16 A302 RMK A01 T02870162  RH  047%=      5-min Rain = 0
KEA1 101636Z 30004KT 28/16 A302 RMK A01 T02810159  RH  047%=      5-min Rain = 0
KEA1 101637Z 32003KT 28/16 A302 RMK A01 T02770158  RH  048%=      5-min Rain = 0
KEA1 101638Z 28003KT 27/16 A302 RMK A01 T02730159  RH  050%=      5-min Rain = 0
KEA1 101639Z 28006KT 27/16 A302 RMK A01 T02740163  RH  051%=      5-min Rain = 0
KEA1 101640Z 28008KT 28/16 A302 RMK A01 T02770163  RH  050%=      5-min Rain = 0
KEA1 101641Z 29008KT 28/16 A302 RMK A01 T02790161  RH  049%=      5-min Rain = 0
KEA1 101642Z 27005KT 28/16 A302 RMK A01 T02760159  RH  049%=      5-min Rain = 0
KEA1 101643Z 26004KT 27/16 A302 RMK A01 T02730159  RH  050%=      5-min Rain = 0
KEA1 101644Z 23003KT 27/16 A302 RMK A01 T02720159  RH  050%=      5-min Rain = 0
KEA1 101645Z 27005KT 27/16 A302 RMK A01 T02710161  RH  051%=      5-min Rain = 0
KEA1 101646Z 27006KT 27/16 A302 RMK A01 T02720161  RH  051%=      5-min Rain = 0
KEA1 101647Z 27007KT 27/16 A302 RMK A01 T02730161  RH  050%=      5-min Rain = 0
KEA1 101648Z 25007KT 27/16 A302 RMK A01 T02740159  RH  050%=      5-min Rain = 0
KEA1 101649Z 28005KT 27/16 A302 RMK A01 T02720159  RH  050%=      5-min Rain = 0
KEA1 101650Z 26007KT 27/16 A302 RMK A01 T02710159  RH  050%=      5-min Rain = 0
KEA1 101651Z 23008KT 27/16 A302 RMK A01 T02700158  RH  050%=      5-min Rain = 0
KEA1 101652Z 24007KT 27/16 A302 RMK A01 T02690158  RH  050%=      5-min Rain = 0
KEA1 101653Z 26006KT 27/16 A302 RMK A01 T02680158  RH  051%=      5-min Rain = 0
KEA1 101654Z 26008KT 27/16 A302 RMK A01 T02680160  RH  051%=      5-min Rain = 0
KEA1 101655Z 26007KT 27/16 A302 RMK A01 T02690158  RH  050%=      5-min Rain = 0
KEA1 101656Z 26007KT 27/16 A302 RMK A01 T02690158  RH  050%=      5-min Rain = 0
KEA1 101657Z 28005KT 27/16 A302 RMK A01 T02690159  RH  051%=      5-min Rain = 0
KEA1 101658Z 27007KT 27/16 A302 RMK A01 T02710159  RH  050%=      5-min Rain = 0
KEA1 101659Z 24008KT 27/16 A302 RMK A01 T02700157  RH  050%=      5-min Rain = 0
KEA1 101700Z 23007KT 27/16 A302 RMK A01 T02680157  RH  050%=      5-min Rain = 0
KEA1 101701Z 27007KT 27/16 A302 RMK A01 T02680157  RH  051%=      5-min Rain = 0
KEA1 101702Z 27008KT 27/16 A302 RMK A01 T02680157  RH  051%=      5-min Rain = 0
KEA1 101703Z 25009KT 27/16 A302 RMK A01 T02680157  RH  050%=      5-min Rain = 0
KEA1 101704Z 25010KT 27/16 A302 RMK A01 T02680157  RH  050%=      5-min Rain = 0
KEA1 101705Z 26009KT 27/16 A302 RMK A01 T02680158  RH  051%=      5-min Rain = 0
KEA1 101706Z 26009KT 27/16 A302 RMK A01 T02690157  RH  050%=      5-min Rain = 0
KEA1 101707Z 25011KT 27/16 A302 RMK A01 T02680157  RH  051%=      5-min Rain = 0
KEA1 101708Z 24009KT 27/16 A302 RMK A01 T02650157  RH  051%=      5-min Rain = 0
KEA1 101709Z 23009KT 27/16 A3019 RMK A01 T02650161  RH  053%=      5-min Rain = 0
KEA1 101710Z 24011KT 27/16 A302 RMK A01 T02670161  RH  052%=      5-min Rain = 0
KEA1 101711Z 24012KT 27/16 A302 RMK A01 T02670158  RH  051%=      5-min Rain = 0
KEA1 101712Z 24008KT 27/16 A302 RMK A01 T02670158  RH  051%=      5-min Rain = 0
KEA1 101713Z 24007KT 27/16 A302 RMK A01 T02660158  RH  052%=      5-min Rain = 0
KEA1 101714Z 24009KT 27/16 A302 RMK A01 T02650160  RH  052%=      5-min Rain = 0
KEA1 101715Z 23010KT 27/16 A3019 RMK A01 T02670159  RH  052%=      5-min Rain = 0
KEA1 101716Z 23009KT 27/16 A3019 RMK A01 T02650161  RH  053%=      5-min Rain = 0
KEA1 101717Z 24011KT 27/16 A3019 RMK A01 T02660160  RH  052%=      5-min Rain = 0
KEA1 101718Z 24008KT 27/16 A302 RMK A01 T02680159  RH  051%=      5-min Rain = 0
KEA1 101719Z 25009KT 27/16 A3019 RMK A01 T02680160  RH  051%=      5-min Rain = 0
KEA1 101720Z 24010KT 27/16 A302 RMK A01 T02670160  RH  052%=      5-min Rain = 0
KEA1 101721Z 24007KT 27/16 A3019 RMK A01 T02670160  RH  052%=      5-min Rain = 0
KEA1 101722Z 24007KT 27/16 A3019 RMK A01 T02660164  RH  053%=      5-min Rain = 0
KEA1 101723Z 24010KT 27/16 A3019 RMK A01 T02680163  RH  053%=      5-min Rain = 0
KEA1 101724Z 24009KT 27/16 A3019 RMK A01 T02690161  RH  051%=      5-min Rain = 0
KEA1 101725Z 24010KT 27/16 A3019 RMK A01 T02690160  RH  051%=      5-min Rain = 0
KEA1 101726Z 25006KT 27/16 A3019 RMK A01 T02670161  RH  052%=      5-min Rain = 0
KEA1 101727Z 26004KT 27/16 A3019 RMK A01 T02670164  RH  053%=      5-min Rain = 0
KEA1 101728Z 26004KT 27/17 A3019 RMK A01 T02690165  RH  053%=      5-min Rain = 0
KEA1 101729Z 26006KT 27/16 A3019 RMK A01 T02720162  RH  051%=      5-min Rain = 0
KEA1 101730Z 23007KT 27/16 A3019 RMK A01 T02730162  RH  050%=      5-min Rain = 0
KEA1 101731Z 23006KT 28/16 A3019 RMK A01 T02750163  RH  050%=      5-min Rain = 0
KEA1 101732Z 24004KT 28/16 A3019 RMK A01 T02760163  RH  050%=      5-min Rain = 0
KEA1 101733Z 25007KT 28/16 A3019 RMK A01 T02760163  RH  050%=      5-min Rain = 0
KEA1 101734Z 26011KT 28/16 A3019 RMK A01 T02790160  RH  048%=      5-min Rain = 0
KEA1 101735Z 26009KT 28/16 A3019 RMK A01 T02800160  RH  048%=      5-min Rain = 0
KEA1 101736Z 26012KT 28/16 A3019 RMK A01 T02810162  RH  048%=      5-min Rain = 0
KEA1 101737Z 25014KT 28/16 A3019 RMK A01 T02830159  RH  047%=      5-min Rain = 0
KEA1 101738Z 25011KT 28/16 A3019 RMK A01 T02830158  RH  047%=      5-min Rain = 0
KEA1 101739Z 26009KT 28/16 A3019 RMK A01 T02800157  RH  047%=      5-min Rain = 0
KEA1 101740Z 27007KT 28/16 A3019 RMK A01 T02770156  RH  048%=      5-min Rain = 0
KEA1 101741Z 25006KT 28/16 A3019 RMK A01 T02760158  RH  048%=      5-min Rain = 0
KEA1 101742Z 27004KT 28/16 A3019 RMK A01 T02760158  RH  049%=      5-min Rain = 0
KEA1 101743Z 28004KT 28/16 A3019 RMK A01 T02750157  RH  049%=      5-min Rain = 0
KEA1 101744Z 28003KT 28/16 A3019 RMK A01 T02760159  RH  049%=      5-min Rain = 0
KEA1 101745Z 27000KT 28/16 A3018 RMK A01 T02760157  RH  048%=      5-min Rain = 0
KEA1 101746Z 28001KT 28/16 A3018 RMK A01 T02760159  RH  049%=      5-min Rain = 0
KEA1 101747Z 27002KT 28/16 A3018 RMK A01 T02770158  RH  048%=      5-min Rain = 0
KEA1 101748Z 26002KT 28/16 A3018 RMK A01 T02770160  RH  049%=      5-min Rain = 0
KEA1 101749Z 25003KT 28/16 A3018 RMK A01 T02770159  RH  048%=      5-min Rain = 0
KEA1 101750Z 25004KT 28/16 A3018 RMK A01 T02770159  RH  049%=      5-min Rain = 0
KEA1 101751Z 23006KT 28/16 A3018 RMK A01 T02780158  RH  048%=      5-min Rain = 0
KEA1 101752Z 24002KT 28/16 A3018 RMK A01 T02780160  RH  049%=      5-min Rain = 0
KEA1 101753Z 23002KT 28/16 A3018 RMK A01 T02780159  RH  048%=      5-min Rain = 0
KEA1 101754Z 27010G17KT 28/16 A3018 RMK A01 T02800163  RH  049%=      5-min Rain = 0
KEA1 101755Z 23010KT 28/16 A3018 RMK A01 T02830162  RH  048%=      5-min Rain = 0
KEA1 101756Z 24009KT 28/16 A3018 RMK A01 T02820161  RH  048%=      5-min Rain = 0
KEA1 101757Z 22006KT 28/16 A3018 RMK A01 T02790159  RH  048%=      5-min Rain = 0
KEA1 101758Z 23004KT 28/16 A3018 RMK A01 T02760160  RH  049%=      5-min Rain = 0
KEA1 101759Z 23004KT 28/16 A3018 RMK A01 T02770164  RH  050%=      5-min Rain = 0
KEA1 101800Z 29009KT 28/16 A3017 RMK A01 T02800162  RH  049%=      5-min Rain = 0
KEA1 101801Z 30006KT 28/16 A3018 RMK A01 T02840159  RH  046%=      5-min Rain = 0
KEA1 101802Z 28008KT 28/16 A3017 RMK A01 T02830157  RH  046%=      5-min Rain = 0
KEA1 101803Z 25006KT 28/16 A3017 RMK A01 T02810160  RH  048%=      5-min Rain = 0
KEA1 101804Z 28005KT 28/16 A3017 RMK A01 T02820162  RH  048%=      5-min Rain = 0
KEA1 101805Z 28007KT 29/16 A3017 RMK A01 T02870158  RH  046%=      5-min Rain = 0
KEA1 101806Z 28006KT 29/16 A3017 RMK A01 T02870161  RH  046%=      5-min Rain = 0
KEA1 101807Z 25005KT 29/17 A3017 RMK A01 T02860167  RH  049%=      5-min Rain = 0
KEA1 101808Z 23008G13KT 29/17 A3017 RMK A01 T02900169  RH  048%=      5-min Rain = 0
KEA1 101809Z 22008KT 30/17 A3017 RMK A01 T02950168  RH  046%=      5-min Rain = 0
KEA1 101810Z 26010KT 30/16 A3017 RMK A01 T02970162  RH  044%=      5-min Rain = 0
KEA1 101811Z 26010KT 29/16 A3017 RMK A01 T02940158  RH  044%=      5-min Rain = 0
KEA1 101812Z 24007KT 29/16 A3017 RMK A01 T02920161  RH  045%=      5-min Rain = 0
KEA1 101813Z 24010KT 29/16 A3017 RMK A01 T02910162  RH  046%=      5-min Rain = 0
KEA1 101814Z 23008KT 29/16 A3017 RMK A01 T02890161  RH  046%=      5-min Rain = 0
KEA1 101815Z 23009KT 29/16 A3017 RMK A01 T02870162  RH  047%=      5-min Rain = 0
KEA1 101816Z 23007G12KT 29/16 A3017 RMK A01 T02850159  RH  046%=      5-min Rain = 0
KEA1 101817Z 24008G13KT 28/16 A3017 RMK A01 T02830162  RH  048%=      5-min Rain = 0
KEA1 101818Z 27014KT 29/16 A3017 RMK A01 T02850161  RH  047%=      5-min Rain = 0
KEA1 101819Z 29008KT 29/16 A3017 RMK A01 T02910162  RH  046%=      5-min Rain = 0
KEA1 101820Z 30006KT 29/16 A3017 RMK A01 T02900161  RH  046%=      5-min Rain = 0
KEA1 101821Z 29006KT 29/16 A3017 RMK A01 T02910163  RH  046%=      5-min Rain = 0
KEA1 101822Z 29008KT 29/16 A3016 RMK A01 T02940163  RH  045%=      5-min Rain = 0
KEA1 101823Z 27008KT 29/16 A3016 RMK A01 T02930162  RH  045%=      5-min Rain = 0
KEA1 101824Z 23007KT 29/16 A3016 RMK A01 T02920161  RH  045%=      5-min Rain = 0
KEA1 101825Z 22007KT 29/16 A3016 RMK A01 T02880160  RH  046%=      5-min Rain = 0
KEA1 101826Z 21004KT 29/16 A3016 RMK A01 T02850158  RH  046%=      5-min Rain = 0
KEA1 101827Z 22004KT 28/16 A3016 RMK A01 T02830161  RH  047%=      5-min Rain = 0
KEA1 101828Z 22007KT 28/16 A3016 RMK A01 T02830162  RH  048%=      5-min Rain = 0
KEA1 101829Z 23012KT 29/16 A3016 RMK A01 T02880164  RH  047%=      5-min Rain = 0
KEA1 101830Z 28008KT 29/16 A3016 RMK A01 T02900161  RH  045%=      5-min Rain = 0
KEA1 101831Z 27009KT 29/16 A3016 RMK A01 T02920158  RH  044%=      5-min Rain = 0
KEA1 101832Z 27008KT 29/16 A3016 RMK A01 T02900156  RH  044%=      5-min Rain = 0
KEA1 101833Z 27009KT 29/16 A3016 RMK A01 T02890157  RH  045%=      5-min Rain = 0
KEA1 101834Z 25008KT 29/16 A3016 RMK A01 T02880157  RH  045%=      5-min Rain = 0
KEA1 101835Z 26008KT 29/16 A3015 RMK A01 T02890158  RH  045%=      5-min Rain = 0
KEA1 101836Z 25008KT 29/16 A3015 RMK A01 T02930157  RH  044%=      5-min Rain = 0
KEA1 101837Z 26006KT 29/16 A3015 RMK A01 T02920158  RH  044%=      5-min Rain = 0
KEA1 101838Z 25009KT 29/16 A3015 RMK A01 T02920157  RH  044%=      5-min Rain = 0
KEA1 101839Z 24008KT 29/16 A3015 RMK A01 T02920157  RH  044%=      5-min Rain = 0
KEA1 101840Z 26008KT 29/16 A3015 RMK A01 T02900157  RH  044%=      5-min Rain = 0
KEA1 101841Z 27010KT 29/16 A3015 RMK A01 T02910157  RH  044%=      5-min Rain = 0
KEA1 101842Z 27006KT 29/16 A3015 RMK A01 T02920156  RH  044%=      5-min Rain = 0
KEA1 101843Z 27004KT 29/16 A3015 RMK A01 T02910155  RH  044%=      5-min Rain = 0
KEA1 101844Z 28006KT 29/16 A3015 RMK A01 T02900156  RH  044%=      5-min Rain = 0
KEA1 101845Z 26005KT 29/15 A3015 RMK A01 T02890154  RH  044%=      5-min Rain = 0
KEA1 101846Z 25004KT 29/15 A3015 RMK A01 T02870154  RH  044%=      5-min Rain = 0
KEA1 101847Z 31003KT 29/15 A3015 RMK A01 T02860153  RH  044%=      5-min Rain = 0
KEA1 101848Z 28004KT 29/16 A3014 RMK A01 T02850155  RH  045%=      5-min Rain = 0
KEA1 101849Z 23005KT 29/16 A3014 RMK A01 T02880156  RH  045%=      5-min Rain = 0
KEA1 101850Z 24005KT 29/16 A3014 RMK A01 T02880157  RH  045%=      5-min Rain = 0
KEA1 101851Z 23004KT 29/15 A3014 RMK A01 T02870154  RH  044%=      5-min Rain = 0
KEA1 101852Z 22002KT 28/15 A3014 RMK A01 T02830154  RH  045%=      5-min Rain = 0
KEA1 101853Z 25002KT 28/16 A3014 RMK A01 T02820155  RH  046%=      5-min Rain = 0
KEA1 101854Z 29002KT 28/16 A3014 RMK A01 T02830158  RH  047%=      5-min Rain = 0
KEA1 101855Z 25003KT 29/16 A3014 RMK A01 T02860158  RH  046%=      5-min Rain = 0
KEA1 101856Z 30006KT 29/16 A3014 RMK A01 T02880157  RH  045%=      5-min Rain = 0
KEA1 101857Z 34004KT 29/16 A3014 RMK A01 T02890155  RH  044%=      5-min Rain = 0
KEA1 101858Z 32006KT 29/16 A3014 RMK A01 T02890159  RH  045%=      5-min Rain = 0
KEA1 101859Z 31007KT 29/16 A3014 RMK A01 T02930160  RH  045%=      5-min Rain = 0
KEA1 101900Z 29006KT 29/16 A3014 RMK A01 T02910158  RH  045%=      5-min Rain = 0
KEA1 101901Z 28005KT 29/16 A3014 RMK A01 T02880156  RH  045%=      5-min Rain = 0
KEA1 101902Z 31004KT 29/16 A3014 RMK A01 T02850155  RH  045%=      5-min Rain = 0
KEA1 101903Z 27004KT 28/16 A3014 RMK A01 T02840157  RH  046%=      5-min Rain = 0
KEA1 101904Z 26006KT 29/16 A3014 RMK A01 T02850156  RH  046%=      5-min Rain = 0
KEA1 101905Z 25007KT 29/16 A3014 RMK A01 T02870157  RH  045%=      5-min Rain = 0
KEA1 101906Z 26003KT 29/16 A3014 RMK A01 T02870156  RH  045%=      5-min Rain = 0
KEA1 101907Z 30001KT 29/16 A3014 RMK A01 T02870158  RH  046%=      5-min Rain = 0
KEA1 101908Z 02002KT 29/16 A3014 RMK A01 T02870158  RH  045%=      5-min Rain = 0
KEA1 101909Z 02003KT 29/16 A3014 RMK A01 T02880156  RH  045%=      5-min Rain = 0
KEA1 101910Z 02004KT 29/16 A3014 RMK A01 T02870156  RH  045%=      5-min Rain = 0
KEA1 101911Z 05005KT 29/16 A3014 RMK A01 T02880158  RH  045%=      5-min Rain = 0
KEA1 101912Z 05005KT 29/16 A3014 RMK A01 T02900159  RH  045%=      5-min Rain = 0
KEA1 101913Z 05003KT 29/16 A3014 RMK A01 T02910160  RH  045%=      5-min Rain = 0
KEA1 101914Z 26002KT 29/16 A3014 RMK A01 T02920159  RH  044%=      5-min Rain = 0
KEA1 101915Z 27001KT 29/16 A3014 RMK A01 T02930159  RH  044%=      5-min Rain = 0
KEA1 101916Z 25003KT 29/16 A3014 RMK A01 T02930156  RH  044%=      5-min Rain = 0
KEA1 101917Z 25004KT 29/16 A3014 RMK A01 T02930156  RH  043%=      5-min Rain = 0
KEA1 101918Z 22004KT 29/16 A3014 RMK A01 T02920158  RH  044%=      5-min Rain = 0
KEA1 101919Z 19002KT 29/16 A3014 RMK A01 T02930156  RH  044%=      5-min Rain = 0
KEA1 101920Z 18002KT 29/16 A3014 RMK A01 T02910155  RH  044%=      5-min Rain = 0
KEA1 101921Z 22001KT 29/16 A3014 RMK A01 T02900155  RH  044%=      5-min Rain = 0
KEA1 101922Z 36001KT 29/15 A3013 RMK A01 T02880154  RH  044%=      5-min Rain = 0
KEA1 101923Z 14001KT 29/16 A3013 RMK A01 T02880156  RH  045%=      5-min Rain = 0
KEA1 101924Z 14002KT 29/16 A3013 RMK A01 T02900158  RH  045%=      5-min Rain = 0
KEA1 101925Z 17000KT 29/16 A3013 RMK A01 T02920155  RH  043%=      5-min Rain = 0
KEA1 101926Z 33004KT 29/16 A3013 RMK A01 T02940156  RH  043%=      5-min Rain = 0
KEA1 101927Z 33004KT 29/16 A3013 RMK A01 T02940155  RH  043%=      5-min Rain = 0
KEA1 101928Z 34006KT 29/16 A3013 RMK A01 T02930157  RH  044%=      5-min Rain = 0
KEA1 101929Z 35005KT 29/16 A3013 RMK A01 T02930156  RH  043%=      5-min Rain = 0
KEA1 101930Z 33008KT 29/15 A3013 RMK A01 T02940154  RH  043%=      5-min Rain = 0
KEA1 101931Z 33008KT 29/15 A3013 RMK A01 T02920152  RH  043%=      5-min Rain = 0
KEA1 101932Z 33005KT 29/15 A3013 RMK A01 T02910153  RH  043%=      5-min Rain = 0
KEA1 101933Z 31006KT 29/15 A3013 RMK A01 T02910152  RH  043%=      5-min Rain = 0
KEA1 101934Z 30006KT 29/15 A3013 RMK A01 T02910153  RH  043%=      5-min Rain = 0
KEA1 101935Z 32004KT 29/15 A3013 RMK A01 T02900151  RH  043%=      5-min Rain = 0
KEA1 101936Z 31008KT 29/15 A3013 RMK A01 T02880152  RH  043%=      5-min Rain = 0
KEA1 101937Z 32007KT 29/15 A3013 RMK A01 T02880151  RH  043%=      5-min Rain = 0
KEA1 101938Z 34005KT 29/15 A3013 RMK A01 T02880151  RH  043%=      5-min Rain = 0
KEA1 101939Z 32004KT 29/15 A3013 RMK A01 T02870151  RH  044%=      5-min Rain = 0
KEA1 101940Z 32004KT 29/15 A3013 RMK A01 T02870152  RH  044%=      5-min Rain = 0
KEA1 101941Z 30006KT 29/15 A3013 RMK A01 T02880152  RH  043%=      5-min Rain = 0
KEA1 101942Z 31005KT 29/15 A3013 RMK A01 T02890152  RH  044%=      5-min Rain = 0
KEA1 101943Z 29002KT 29/15 A3012 RMK A01 T02890152  RH  044%=      5-min Rain = 0
KEA1 101944Z 30002KT 29/16 A3012 RMK A01 T02900155  RH  044%=      5-min Rain = 0
KEA1 101945Z 25002KT 29/15 A3012 RMK A01 T02910153  RH  043%=      5-min Rain = 0
KEA1 101946Z 30003KT 29/15 A3012 RMK A01 T02920154  RH  043%=      5-min Rain = 0
KEA1 101947Z 30003KT 29/15 A3012 RMK A01 T02930152  RH  042%=      5-min Rain = 0
KEA1 101948Z 31002KT 29/15 A3012 RMK A01 T02930152  RH  042%=      5-min Rain = 0
KEA1 101949Z 31001KT 30/15 A3012 RMK A01 T02950152  RH  042%=      5-min Rain = 0
KEA1 101950Z 01003KT 30/15 A3012 RMK A01 T02990154  RH  042%=      5-min Rain = 0
KEA1 101951Z 02004KT 31/16 A3012 RMK A01 T03050156  RH  041%=      5-min Rain = 0
KEA1 101952Z 03007KT 31/15 A3012 RMK A01 T03080151  RH  039%=      5-min Rain = 0
KEA1 101953Z 04006KT 31/15 A3012 RMK A01 T03060149  RH  038%=      5-min Rain = 0
KEA1 101954Z 04001KT 30/15 A3012 RMK A01 T03030147  RH  039%=      5-min Rain = 0
KEA1 101955Z 03003KT 30/15 A3012 RMK A01 T03000148  RH  040%=      5-min Rain = 0
KEA1 101956Z 35004KT 30/15 A3012 RMK A01 T03000147  RH  039%=      5-min Rain = 0
KEA1 101957Z 01003KT 30/15 A3012 RMK A01 T03000146  RH  039%=      5-min Rain = 0
KEA1 101958Z 01003KT 30/15 A3012 RMK A01 T03000146  RH  039%=      5-min Rain = 0
KEA1 101959Z 03005KT 30/14 A3012 RMK A01 T02990144  RH  039%=      5-min Rain = 0
KEA1 102000Z 02004KT 30/14 A3012 RMK A01 T02970142  RH  039%=      5-min Rain = 0
KEA1 102001Z 01003KT 29/14 A3012 RMK A01 T02940142  RH  039%=      5-min Rain = 0
KEA1 102002Z 03003KT 29/15 A3012 RMK A01 T02930145  RH  040%=      5-min Rain = 0
KEA1 102003Z 35003KT 29/15 A3012 RMK A01 T02920146  RH  041%=      5-min Rain = 0
KEA1 102004Z 35006KT 29/15 A3013 RMK A01 T02920148  RH  041%=      5-min Rain = 0
KEA1 102005Z 33011KT 29/15 A3013 RMK A01 T02910150  RH  042%=      5-min Rain = 0
KEA1 102006Z 33019G29KT 29/15 A3013 RMK A01 T02870146  RH  042%=      5-min Rain = 0
KEA1 102007Z 32023G29KT 27/15 A3013 RMK A01 T02680151  RH  049%=      5-min Rain = 0
KEA1 102008Z 32017G23KT 25/15 A3013 RMK A01 T02470154  RH  056%=      5-min Rain = 0
KEA1 102009Z 32016KT 24/16 A3012 RMK A01 T02370156  RH  060%=      5-min Rain = 0
KEA1 102010Z 31017KT 23/15 A3012 RMK A01 T02320154  RH  061%=      5-min Rain = 0
KEA1 102011Z 32018G23KT 23/15 A3012 RMK A01 T02320151  RH  060%=      5-min Rain = 0
KEA1 102012Z 33021KT 23/15 A3011 RMK A01 T02340150  RH  059%=      5-min Rain = 0
KEA1 102013Z 32020G25KT 24/15 A3011 RMK A01 T02370149  RH  058%=      5-min Rain = 0
KEA1 102014Z 32019KT 24/15 A3011 RMK A01 T02380149  RH  057%=      5-min Rain = 0
KEA1 102015Z 31021G26KT 24/15 A3011 RMK A01 T02390148  RH  057%=      5-min Rain = 0
KEA1 102016Z 31022KT 23/14 A3011 RMK A01 T02330142  RH  056%=      5-min Rain = 0
KEA1 102017Z 32018KT 23/14 A3011 RMK A01 T02260137  RH  057%=      5-min Rain = 0
KEA1 102018Z 31018G24KT 22/14 A3011 RMK A01 T02230136  RH  058%=      5-min Rain = 0
KEA1 102019Z 31017KT 22/13 A3011 RMK A01 T02220133  RH  057%=      5-min Rain = 0
KEA1 102020Z 30022KT 23/13 A3012 RMK A01 T02260129  RH  054%=      5-min Rain = 0
KEA1 102021Z 30017KT 23/12 A3012 RMK A01 T02300124  RH  051%=      5-min Rain = 0
KEA1 102022Z 29021G26KT 23/13 A3013 RMK A01 T02300125  RH  051%=      5-min Rain = 0
KEA1 102023Z 29021G26KT 22/12 A3013 RMK A01 T02170123  RH  055%=      5-min Rain = 0
KEA1 102024Z 28020G27KT 21/13 A3013 RMK A01 T02060128  RH  061%=      5-min Rain = 0
KEA1 102025Z 28022KT 20/13 A3013 RMK A01 T02040134  RH  064%=      5-min Rain = 0
KEA1 102026Z 28020KT 21/14 A3013 RMK A01 T02050138  RH  065%=      5-min Rain = 0
KEA1 102027Z 28020KT 21/14 A3013 RMK A01 T02070136  RH  064%=      5-min Rain = 0
KEA1 102028Z 28020KT 21/13 A3013 RMK A01 T02120133  RH  061%=      5-min Rain = 0
KEA1 102029Z 28021KT 22/13 A3013 RMK A01 T02180128  RH  056%=      5-min Rain = 0
KEA1 102030Z 28017KT 22/13 A3013 RMK A01 T02210129  RH  056%=      5-min Rain = 0
KEA1 102031Z 28014KT 22/13 A3013 RMK A01 T02220130  RH  056%=      5-min Rain = 0
KEA1 102032Z 27017KT 22/13 A3013 RMK A01 T02230130  RH  056%=      5-min Rain = 0
KEA1 102033Z 26015KT 23/13 A3013 RMK A01 T02250131  RH  055%=      5-min Rain = 0
KEA1 102034Z 24014KT 23/13 A3013 RMK A01 T02250130  RH  055%=      5-min Rain = 0
KEA1 102035Z 24012KT 22/14 A3013 RMK A01 T02210138  RH  059%=      5-min Rain = 0
KEA1 102036Z 23014KT 21/14 A3013 RMK A01 T02120143  RH  065%=      5-min Rain = 0
KEA1 102037Z 22011KT 21/15 A3013 RMK A01 T02070153  RH  071%=      5-min Rain = 0
KEA1 102038Z 22014KT 20/15 A3013 RMK A01 T02040151  RH  071%=      5-min Rain = 0
KEA1 102039Z 23013G20KT 20/15 A3013 RMK A01 T02040154  RH  073%=      5-min Rain = 0
KEA1 102040Z 22017KT 21/15 A3012 RMK A01 T02050148  RH  070%=      5-min Rain = 0
KEA1 102041Z 23014KT 21/15 A3013 RMK A01 T02070152  RH  071%=      5-min Rain = 0
KEA1 102042Z 22011KT 21/15 A3013 RMK A01 T02080154  RH  071%=      5-min Rain = 0
KEA1 102043Z 23012KT 21/16 A3013 RMK A01 T02100158  RH  072%=      5-min Rain = 0
KEA1 102044Z 23012KT 21/15 A3013 RMK A01 T02120151  RH  068%=      5-min Rain = 0
KEA1 102045Z 23013KT 21/15 A3013 RMK A01 T02140146  RH  065%=      5-min Rain = 0
KEA1 102046Z 23010KT 21/14 A3013 RMK A01 T02140141  RH  063%=      5-min Rain = 0
KEA1 102047Z 22010KT 22/15 A3014 RMK A01 T02150149  RH  066%=      5-min Rain = 0
KEA1 102048Z 20010KT 21/16 A3014 RMK A01 T02130159  RH  071%=      5-min Rain = 0.01
KEA1 102049Z 19013KT 21/16 A3014 RMK A01 T02070159  RH  074%=      5-min Rain = 0
KEA1 102050Z 19013KT 20/16 A3014 RMK A01 T01990157  RH  077%=      5-min Rain = 0
KEA1 102051Z 20013KT 19/16 A3014 RMK A01 T01930160  RH  081%=      5-min Rain = 0
KEA1 102052Z 20009KT 19/16 A3015 RMK A01 T01890158  RH  082%=      5-min Rain = 0
KEA1 102053Z 20009KT 19/16 A3015 RMK A01 T01870159  RH  084%=      5-min Rain = 0
KEA1 102054Z 20009KT 19/16 A3015 RMK A01 T01860160  RH  085%=      5-min Rain = 0
KEA1 102055Z 20010KT 19/16 A3015 RMK A01 T01850160  RH  085%=      5-min Rain = 0
KEA1 102056Z 21008KT 19/16 A3015 RMK A01 T01850161  RH  086%=      5-min Rain = 0.01
KEA1 102057Z 21009KT 19/16 A3014 RMK A01 T01860161  RH  085%=      5-min Rain = 0
KEA1 102058Z 20009KT 19/16 A3014 RMK A01 T01880161  RH  084%=      5-min Rain = 0
KEA1 102059Z 21008KT 19/16 A3014 RMK A01 T01890161  RH  084%=      5-min Rain = 0
KEA1 102100Z 21008KT 19/16 A3014 RMK A01 T01910159  RH  082%=      5-min Rain = 0
KEA1 102101Z 21006KT 19/16 A3014 RMK A01 T01940160  RH  081%=      5-min Rain = 0
KEA1 102102Z 21007KT 20/16 A3014 RMK A01 T01950164  RH  082%=      5-min Rain = 0
KEA1 102103Z 21007KT 20/16 A3014 RMK A01 T01950162  RH  081%=      5-min Rain = 0
KEA1 102104Z 20006KT 20/16 A3014 RMK A01 T01960159  RH  079%=      5-min Rain = 0
KEA1 102105Z 19006KT 20/16 A3014 RMK A01 T01980163  RH  080%=      5-min Rain = 0
KEA1 102106Z 19007KT 20/17 A3013 RMK A01 T01980165  RH  081%=      5-min Rain = 0
KEA1 102107Z 19006KT 20/16 A3013 RMK A01 T01970164  RH  081%=      5-min Rain = 0
KEA1 102108Z 18006KT 20/17 A3013 RMK A01 T01960165  RH  082%=      5-min Rain = 0
KEA1 102109Z 15005KT 20/17 A3014 RMK A01 T01960165  RH  083%=      5-min Rain = 0
KEA1 102110Z 11006KT 20/17 A3014 RMK A01 T01950171  RH  086%=      5-min Rain = 0
KEA1 102111Z 09007KT 19/17 A3015 RMK A01 T01940173  RH  088%=      5-min Rain = 0
KEA1 102112Z 09008KT 19/17 A3015 RMK A01 T01920174  RH  089%=      5-min Rain = 0
KEA1 102113Z 10007KT 19/17 A3015 RMK A01 T01910171  RH  088%=      5-min Rain = 0
KEA1 102114Z 10010KT 19/17 A3016 RMK A01 T01910168  RH  086%=      5-min Rain = 0
KEA1 102115Z 08016G22KT 19/17 A3016 RMK A01 T01920169  RH  086%=      5-min Rain = 0
KEA1 102116Z 08017KT 19/17 A3016 RMK A01 T01930168  RH  085%=      5-min Rain = 0
KEA1 102117Z 08017G24KT 19/17 A3016 RMK A01 T01940167  RH  084%=      5-min Rain = 0
KEA1 102118Z 08016KT 19/16 A3016 RMK A01 T01940164  RH  083%=      5-min Rain = 0
KEA1 102119Z 09011G17KT 19/16 A3016 RMK A01 T01940164  RH  083%=      5-min Rain = 0
KEA1 102120Z 09009KT 19/16 A3016 RMK A01 T01930164  RH  083%=      5-min Rain = 0
KEA1 102121Z 09010KT 19/16 A3016 RMK A01 T01930163  RH  083%=      5-min Rain = 0
KEA1 102122Z 09011KT 19/16 A3016 RMK A01 T01930162  RH  082%=      5-min Rain = 0
KEA1 102123Z 09012KT 19/16 A3016 RMK A01 T01930161  RH  081%=      5-min Rain = 0
KEA1 102124Z 10014KT 19/16 A3016 RMK A01 T01940162  RH  082%=      5-min Rain = 0
KEA1 102125Z 10013KT 19/17 A3015 RMK A01 T01940165  RH  083%=      5-min Rain = 0
KEA1 102126Z 11014KT 19/17 A3015 RMK A01 T01940167  RH  085%=      5-min Rain = 0
KEA1 102127Z 11014KT 19/17 A3015 RMK A01 T01930168  RH  085%=      5-min Rain = 0
KEA1 102128Z 11013KT 19/17 A3015 RMK A01 T01930169  RH  086%=      5-min Rain = 0
KEA1 102129Z 11013KT 19/17 A3015 RMK A01 T01930171  RH  087%=      5-min Rain = 0
KEA1 102130Z 11013KT 19/17 A3015 RMK A01 T01920172  RH  088%=      5-min Rain = 0
KEA1 102131Z 11013KT 19/17 A3015 RMK A01 T01910172  RH  089%=      5-min Rain = 0.01
KEA1 102132Z 12012KT 19/17 A3014 RMK A01 T01910173  RH  089%=      5-min Rain = 0
KEA1 102133Z 12013KT 19/17 A3014 RMK A01 T01910173  RH  089%=      5-min Rain = 0
KEA1 102134Z 11011KT 19/17 A3014 RMK A01 T01910173  RH  089%=      5-min Rain = 0
KEA1 102135Z 11011KT 19/17 A3014 RMK A01 T01910174  RH  090%=      5-min Rain = 0
KEA1 102136Z 12012KT 19/18 A3015 RMK A01 T01910175  RH  090%=      5-min Rain = 0
KEA1 102137Z 12012KT 19/17 A3015 RMK A01 T01910174  RH  090%=      5-min Rain = 0
KEA1 102138Z 12011KT 19/17 A3015 RMK A01 T01910174  RH  090%=      5-min Rain = 0
KEA1 102139Z 12012KT 19/17 A3015 RMK A01 T01910174  RH  090%=      5-min Rain = 0
KEA1 102140Z 13013KT 19/17 A3015 RMK A01 T01910174  RH  090%=      5-min Rain = 0
KEA1 102141Z 13014KT 19/17 A3015 RMK A01 T01910173  RH  089%=      5-min Rain = 0
KEA1 102142Z 13013KT 19/17 A3015 RMK A01 T01910173  RH  089%=      5-min Rain = 0
KEA1 102143Z 13011KT 19/17 A3015 RMK A01 T01910173  RH  089%=      5-min Rain = 0
KEA1 102144Z 13010KT 19/17 A3015 RMK A01 T01920174  RH  090%=      5-min Rain = 0
KEA1 102145Z 14007KT 19/17 A3015 RMK A01 T01920174  RH  090%=      5-min Rain = 0
KEA1 102146Z 14009KT 19/18 A3015 RMK A01 T01920176  RH  090%=      5-min Rain = 0
KEA1 102147Z 13008KT 19/18 A3015 RMK A01 T01930175  RH  089%=      5-min Rain = 0
KEA1 102148Z 14006KT 19/17 A3015 RMK A01 T01930174  RH  089%=      5-min Rain = 0
KEA1 102149Z 15006KT 19/18 A3015 RMK A01 T01940175  RH  088%=      5-min Rain = 0
KEA1 102150Z 16004KT 20/18 A3015 RMK A01 T01950175  RH  088%=      5-min Rain = 0
KEA1 102151Z 17004KT 20/18 A3015 RMK A01 T01950176  RH  088%=      5-min Rain = 0
KEA1 102152Z 18004KT 20/18 A3015 RMK A01 T01960176  RH  088%=      5-min Rain = 0
KEA1 102153Z 18006KT 20/18 A3015 RMK A01 T01970176  RH  088%=      5-min Rain = 0
KEA1 102154Z 19005KT 20/18 A3015 RMK A01 T01970177  RH  088%=      5-min Rain = 0
KEA1 102155Z 19006KT 20/18 A3015 RMK A01 T01970177  RH  088%=      5-min Rain = 0
KEA1 102156Z 18006KT 20/18 A3015 RMK A01 T01980176  RH  087%=      5-min Rain = 0
KEA1 102157Z 18005KT 20/17 A3015 RMK A01 T01980174  RH  086%=      5-min Rain = 0
KEA1 102158Z 18004KT 20/17 A3015 RMK A01 T01990174  RH  086%=      5-min Rain = 0
KEA1 102159Z 19004KT 20/18 A3015 RMK A01 T01990175  RH  086%=      5-min Rain = 0
KEA1 102200Z 19005KT 20/18 A3015 RMK A01 T02000176  RH  086%=      5-min Rain = 0
KEA1 102201Z 19005KT 20/18 A3015 RMK A01 T02000176  RH  086%=      5-min Rain = 0
KEA1 102202Z 19005KT 20/18 A3015 RMK A01 T02010175  RH  085%=      5-min Rain = 0
KEA1 102203Z 18005KT 20/18 A3015 RMK A01 T02010176  RH  085%=      5-min Rain = 0
KEA1 102204Z 18005KT 20/18 A3015 RMK A01 T02020177  RH  086%=      5-min Rain = 0
KEA1 102205Z 17007KT 20/18 A3015 RMK A01 T02020177  RH  085%=      5-min Rain = 0
KEA1 102206Z 17006KT 20/18 A3014 RMK A01 T02020177  RH  085%=      5-min Rain = 0
KEA1 102207Z 16006KT 20/18 A3014 RMK A01 T02030178  RH  086%=      5-min Rain = 0
KEA1 102208Z 17007KT 20/18 A3014 RMK A01 T02040178  RH  085%=      5-min Rain = 0
KEA1 102209Z 16008KT 20/18 A3014 RMK A01 T02040178  RH  085%=      5-min Rain = 0
KEA1 102210Z 16008KT 20/18 A3014 RMK A01 T02040176  RH  084%=      5-min Rain = 0
KEA1 102211Z 15007KT 21/18 A3014 RMK A01 T02050177  RH  084%=      5-min Rain = 0
KEA1 102212Z 15007KT 21/18 A3014 RMK A01 T02050177  RH  084%=      5-min Rain = 0
KEA1 102213Z 15008KT 21/18 A3014 RMK A01 T02060175  RH  083%=      5-min Rain = 0
KEA1 102214Z 14007KT 21/18 A3014 RMK A01 T02060175  RH  083%=      5-min Rain = 0
KEA1 102215Z 15007KT 21/18 A3014 RMK A01 T02070176  RH  083%=      5-min Rain = 0
KEA1 102216Z 15008KT 21/18 A3014 RMK A01 T02070175  RH  082%=      5-min Rain = 0
KEA1 102217Z 14008KT 21/17 A3014 RMK A01 T02080173  RH  081%=      5-min Rain = 0
KEA1 102218Z 14007KT 21/17 A3014 RMK A01 T02080174  RH  081%=      5-min Rain = 0
KEA1 102219Z 15007KT 21/17 A3014 RMK A01 T02090174  RH  080%=      5-min Rain = 0
KEA1 102220Z 14007KT 21/17 A3014 RMK A01 T02090173  RH  079%=      5-min Rain = 0
KEA1 102221Z 15007KT 21/17 A3014 RMK A01 T02100174  RH  080%=      5-min Rain = 0
KEA1 102222Z 15007KT 21/18 A3014 RMK A01 T02100177  RH  081%=      5-min Rain = 0
KEA1 102223Z 14008KT 21/18 A3014 RMK A01 T02110175  RH  080%=      5-min Rain = 0
KEA1 102224Z 14007KT 21/17 A3014 RMK A01 T02110171  RH  078%=      5-min Rain = 0
KEA1 102225Z 14007KT 21/17 A3014 RMK A01 T02110174  RH  079%=      5-min Rain = 0
KEA1 102226Z 14008KT 21/17 A3015 RMK A01 T02110174  RH  079%=      5-min Rain = 0
KEA1 102227Z 14008KT 21/17 A3015 RMK A01 T02120173  RH  079%=      5-min Rain = 0
KEA1 102228Z 15008KT 21/17 A3015 RMK A01 T02120171  RH  077%=      5-min Rain = 0
KEA1 102229Z 14007KT 21/17 A3015 RMK A01 T02120173  RH  078%=      5-min Rain = 0
KEA1 102230Z 13005KT 21/18 A3015 RMK A01 T02130176  RH  080%=      5-min Rain = 0
KEA1 102231Z 13005KT 21/18 A3015 RMK A01 T02130178  RH  080%=      5-min Rain = 0
KEA1 102232Z 14006KT 21/18 A3015 RMK A01 T02140175  RH  079%=      5-min Rain = 0
KEA1 102233Z 13005KT 21/17 A3015 RMK A01 T02140173  RH  078%=      5-min Rain = 0
KEA1 102234Z 13007KT 21/17 A3015 RMK A01 T02140174  RH  078%=      5-min Rain = 0
KEA1 102235Z 12008KT 22/17 A3015 RMK A01 T02150170  RH  076%=      5-min Rain = 0
KEA1 102236Z 13007KT 22/17 A3015 RMK A01 T02150171  RH  076%=      5-min Rain = 0
KEA1 102237Z 14007KT 22/17 A3015 RMK A01 T02160172  RH  076%=      5-min Rain = 0
KEA1 102238Z 14008KT 22/17 A3015 RMK A01 T02160171  RH  075%=      5-min Rain = 0
KEA1 102239Z 14009KT 22/17 A3015 RMK A01 T02160170  RH  075%=      5-min Rain = 0
KEA1 102240Z 14007KT 22/17 A3014 RMK A01 T02160171  RH  075%=      5-min Rain = 0
KEA1 102241Z 13007KT 22/17 A3014 RMK A01 T02170173  RH  076%=      5-min Rain = 0
KEA1 102242Z 14009KT 22/17 A3014 RMK A01 T02180171  RH  075%=      5-min Rain = 0
KEA1 102243Z 13008KT 22/17 A3014 RMK A01 T02180168  RH  073%=      5-min Rain = 0
KEA1 102244Z 14007KT 22/17 A3014 RMK A01 T02180167  RH  073%=      5-min Rain = 0
KEA1 102245Z 14006KT 22/17 A3014 RMK A01 T02180171  RH  075%=      5-min Rain = 0
KEA1 102246Z 14007KT 22/18 A3014 RMK A01 T02190175  RH  076%=      5-min Rain = 0
KEA1 102247Z 15008KT 22/17 A3014 RMK A01 T02200172  RH  074%=      5-min Rain = 0
KEA1 102248Z 15007KT 22/17 A3014 RMK A01 T02210173  RH  074%=      5-min Rain = 0
KEA1 102249Z 14007KT 22/17 A3014 RMK A01 T02220174  RH  074%=      5-min Rain = 0
KEA1 102250Z 14006KT 22/17 A3014 RMK A01 T02230171  RH  072%=      5-min Rain = 0
KEA1 102251Z 15009KT 22/17 A3014 RMK A01 T02240169  RH  071%=      5-min Rain = 0
KEA1 102252Z 14009KT 22/17 A3014 RMK A01 T02230169  RH  071%=      5-min Rain = 0
KEA1 102253Z 14008KT 22/16 A3014 RMK A01 T02220164  RH  070%=      5-min Rain = 0
KEA1 102254Z 15008KT 22/17 A3014 RMK A01 T02200165  RH  071%=      5-min Rain = 0
KEA1 102255Z 16008KT 22/16 A3014 RMK A01 T02200162  RH  070%=      5-min Rain = 0
KEA1 102256Z 16009KT 22/16 A3014 RMK A01 T02200160  RH  069%=      5-min Rain = 0
KEA1 102257Z 16007KT 22/16 A3014 RMK A01 T02190160  RH  069%=      5-min Rain = 0
KEA1 102258Z 15007KT 22/16 A3014 RMK A01 T02190163  RH  070%=      5-min Rain = 0
KEA1 102259Z 15008KT 22/16 A3013 RMK A01 T02200164  RH  071%=      5-min Rain = 0
KEA1 102300Z 16010KT 22/16 A3013 RMK A01 T02210163  RH  070%=      5-min Rain = 0
KEA1 102301Z 16007KT 22/16 A3013 RMK A01 T02210161  RH  069%=      5-min Rain = 0
KEA1 102302Z 16006KT 22/16 A3013 RMK A01 T02210163  RH  070%=      5-min Rain = 0
KEA1 102303Z 16008KT 22/16 A3013 RMK A01 T02220162  RH  069%=      5-min Rain = 0
KEA1 102304Z 16007KT 22/16 A3013 RMK A01 T02220160  RH  068%=      5-min Rain = 0
KEA1 102305Z 16007KT 22/16 A3013 RMK A01 T02200163  RH  070%=      5-min Rain = 0
KEA1 102306Z 17008KT 22/16 A3013 RMK A01 T02210160  RH  069%=      5-min Rain = 0
KEA1 102307Z 16008KT 22/16 A3013 RMK A01 T02200157  RH  067%=      5-min Rain = 0
KEA1 102308Z 16007KT 22/16 A3013 RMK A01 T02200157  RH  067%=      5-min Rain = 0
KEA1 102309Z 16006KT 22/16 A3013 RMK A01 T02190159  RH  069%=      5-min Rain = 0
KEA1 102310Z 17005KT 22/16 A3013 RMK A01 T02180161  RH  070%=      5-min Rain = 0
KEA1 102311Z 17007KT 22/16 A3013 RMK A01 T02180161  RH  070%=      5-min Rain = 0
KEA1 102312Z 16008KT 22/16 A3013 RMK A01 T02190161  RH  070%=      5-min Rain = 0
KEA1 102313Z 16007KT 22/16 A3013 RMK A01 T02190156  RH  067%=      5-min Rain = 0
KEA1 102314Z 17005KT 22/16 A3013 RMK A01 T02190159  RH  069%=      5-min Rain = 0
KEA1 102315Z 18006KT 22/16 A3013 RMK A01 T02190161  RH  069%=      5-min Rain = 0
KEA1 102316Z 17008KT 22/16 A3013 RMK A01 T02190158  RH  068%=      5-min Rain = 0
KEA1 102317Z 17007KT 22/16 A3013 RMK A01 T02190157  RH  068%=      5-min Rain = 0
KEA1 102318Z 16007KT 22/16 A3013 RMK A01 T02190158  RH  069%=      5-min Rain = 0
KEA1 102319Z 16007KT 22/16 A3013 RMK A01 T02180155  RH  067%=      5-min Rain = 0
KEA1 102320Z 16006KT 22/16 A3013 RMK A01 T02180157  RH  068%=      5-min Rain = 0
KEA1 102321Z 16006KT 22/16 A3013 RMK A01 T02180157  RH  068%=      5-min Rain = 0
KEA1 102322Z 16005KT 22/16 A3013 RMK A01 T02180158  RH  068%=      5-min Rain = 0
KEA1 102323Z 17006KT 22/16 A3013 RMK A01 T02190158  RH  068%=      5-min Rain = 0
KEA1 102324Z 17005KT 22/16 A3013 RMK A01 T02190157  RH  068%=      5-min Rain = 0
KEA1 102325Z 16005KT 22/16 A3013 RMK A01 T02190161  RH  070%=      5-min Rain = 0
KEA1 102326Z 16004KT 22/16 A3013 RMK A01 T02180159  RH  069%=      5-min Rain = 0
KEA1 102327Z 16005KT 22/16 A3013 RMK A01 T02190155  RH  067%=      5-min Rain = 0
KEA1 102328Z 17004KT 22/15 A3013 RMK A01 T02190153  RH  066%=      5-min Rain = 0
KEA1 102329Z 18004KT 22/15 A3013 RMK A01 T02190154  RH  067%=      5-min Rain = 0
KEA1 102330Z 17004KT 22/16 A3013 RMK A01 T02190155  RH  067%=      5-min Rain = 0
KEA1 102331Z 19004KT 22/16 A3013 RMK A01 T02190156  RH  067%=      5-min Rain = 0
KEA1 102332Z 20004KT 22/16 A3013 RMK A01 T02190157  RH  068%=      5-min Rain = 0
KEA1 102333Z 19004KT 22/16 A3013 RMK A01 T02190156  RH  067%=      5-min Rain = 0
KEA1 102334Z 19004KT 22/16 A3013 RMK A01 T02190156  RH  068%=      5-min Rain = 0
KEA1 102335Z 20004KT 22/16 A3013 RMK A01 T02190156  RH  067%=      5-min Rain = 0
KEA1 102336Z 20004KT 22/16 A3013 RMK A01 T02200157  RH  067%=      5-min Rain = 0
KEA1 102337Z 21004KT 22/16 A3013 RMK A01 T02200157  RH  068%=      5-min Rain = 0
KEA1 102338Z 21003KT 22/16 A3013 RMK A01 T02190158  RH  068%=      5-min Rain = 0
KEA1 102339Z 22003KT 22/16 A3013 RMK A01 T02200156  RH  067%=      5-min Rain = 0
KEA1 102340Z 22003KT 22/16 A3013 RMK A01 T02200158  RH  068%=      5-min Rain = 0
KEA1 102341Z 21004KT 22/16 A3013 RMK A01 T02200158  RH  068%=      5-min Rain = 0
KEA1 102342Z 20004KT 22/16 A3013 RMK A01 T02200157  RH  067%=      5-min Rain = 0
KEA1 102343Z 21004KT 22/16 A3012 RMK A01 T02200155  RH  067%=      5-min Rain = 0
KEA1 102344Z 21004KT 22/15 A3012 RMK A01 T02200154  RH  066%=      5-min Rain = 0
KEA1 102345Z 22004KT 22/15 A3012 RMK A01 T02200154  RH  066%=      5-min Rain = 0
KEA1 102346Z 22004KT 22/15 A3012 RMK A01 T02210153  RH  065%=      5-min Rain = 0
KEA1 102347Z 21005KT 22/16 A3012 RMK A01 T02220155  RH  066%=      5-min Rain = 0
KEA1 102348Z 20004KT 22/16 A3012 RMK A01 T02230156  RH  066%=      5-min Rain = 0
KEA1 102349Z 21003KT 22/16 A3012 RMK A01 T02240155  RH  065%=      5-min Rain = 0
KEA1 102350Z 21004KT 23/16 A3012 RMK A01 T02250158  RH  066%=      5-min Rain = 0
KEA1 102351Z 21003KT 23/15 A3012 RMK A01 T02260154  RH  064%=      5-min Rain = 0
KEA1 102352Z 19004KT 23/16 A3012 RMK A01 T02260155  RH  064%=      5-min Rain = 0
KEA1 102353Z 19003KT 23/15 A3012 RMK A01 T02260153  RH  063%=      5-min Rain = 0
KEA1 102354Z 18003KT 23/15 A3012 RMK A01 T02270153  RH  063%=      5-min Rain = 0
KEA1 102355Z 19002KT 23/16 A3012 RMK A01 T02270157  RH  064%=      5-min Rain = 0
KEA1 102356Z 20003KT 23/16 A3012 RMK A01 T02270156  RH  064%=      5-min Rain = 0
KEA1 102357Z 21003KT 23/16 A3012 RMK A01 T02270155  RH  064%=      5-min Rain = 0
KEA1 102358Z 21003KT 23/15 A3012 RMK A01 T02260154  RH  064%=      5-min Rain = 0
KEA1 102359Z 20003KT 23/15 A3012 RMK A01 T02250154  RH  064%=      5-min Rain = 0
KEA1 110000Z 20002KT 23/15 A3012 RMK A01 T02250152  RH  063%=      5-min Rain = 0
KEA1 110001Z 22003KT 23/15 A3012 RMK A01 T02250151  RH  063%=      5-min Rain = 0
KEA1 110002Z 22002KT 23/15 A3012 RMK A01 T02250152  RH  063%=      5-min Rain = 0
KEA1 110003Z 22003KT 23/15 A3012 RMK A01 T02250151  RH  063%=      5-min Rain = 0
KEA1 110004Z 21002KT 23/15 A3012 RMK A01 T02260152  RH  063%=      5-min Rain = 0
KEA1 110005Z 21002KT 23/15 A3012 RMK A01 T02260150  RH  062%=      5-min Rain = 0
KEA1 110006Z 23003KT 23/15 A3012 RMK A01 T02270154  RH  063%=      5-min Rain = 0
KEA1 110007Z 23002KT 23/15 A3012 RMK A01 T02280150  RH  061%=      5-min Rain = 0
KEA1 110008Z 22003KT 23/15 A3012 RMK A01 T02280149  RH  061%=      5-min Rain = 0
KEA1 110009Z 23003KT 23/15 A3011 RMK A01 T02290146  RH  060%=      5-min Rain = 0
KEA1 110010Z 24002KT 23/15 A3011 RMK A01 T02300148  RH  060%=      5-min Rain = 0
KEA1 110011Z 27002KT 23/15 A3011 RMK A01 T02310149  RH  060%=      5-min Rain = 0
KEA1 110012Z 27003KT 23/15 A3011 RMK A01 T02330151  RH  060%=      5-min Rain = 0
KEA1 110013Z 27002KT 24/15 A3011 RMK A01 T02350152  RH  060%=      5-min Rain = 0
KEA1 110014Z 29002KT 24/16 A3011 RMK A01 T02370155  RH  060%=      5-min Rain = 0
KEA1 110015Z 30003KT 24/16 A3011 RMK A01 T02390155  RH  059%=      5-min Rain = 0
KEA1 110016Z 31003KT 24/15 A3011 RMK A01 T02410150  RH  057%=      5-min Rain = 0
KEA1 110017Z 31003KT 24/14 A3011 RMK A01 T02410143  RH  054%=      5-min Rain = 0
KEA1 110018Z 30004KT 24/16 A3011 RMK A01 T02410155  RH  059%=      5-min Rain = 0
KEA1 110019Z 30004KT 24/16 A3011 RMK A01 T02420158  RH  059%=      5-min Rain = 0
KEA1 110020Z 30003KT 24/15 A3011 RMK A01 T02430154  RH  058%=      5-min Rain = 0
KEA1 110021Z 28003KT 24/15 A3011 RMK A01 T02410152  RH  057%=      5-min Rain = 0
KEA1 110022Z 29003KT 24/15 A3011 RMK A01 T02400152  RH  058%=      5-min Rain = 0
KEA1 110023Z 30003KT 24/15 A3011 RMK A01 T02390153  RH  059%=      5-min Rain = 0
KEA1 110024Z 32003KT 24/15 A3011 RMK A01 T02390153  RH  058%=      5-min Rain = 0
KEA1 110025Z 32003KT 24/15 A3011 RMK A01 T02390148  RH  057%=      5-min Rain = 0
KEA1 110026Z 32004KT 24/15 A3011 RMK A01 T02390151  RH  058%=      5-min Rain = 0
KEA1 110027Z 32004KT 24/15 A3011 RMK A01 T02390150  RH  057%=      5-min Rain = 0
KEA1 110028Z 31005KT 24/15 A3011 RMK A01 T02390151  RH  058%=      5-min Rain = 0
KEA1 110029Z 31005KT 24/15 A3011 RMK A01 T02390153  RH  059%=      5-min Rain = 0
KEA1 110030Z 31005KT 24/15 A3011 RMK A01 T02390151  RH  058%=      5-min Rain = 0
KEA1 110031Z 31004KT 24/15 A3011 RMK A01 T02380151  RH  058%=      5-min Rain = 0
KEA1 110032Z 32004KT 24/15 A3011 RMK A01 T02370152  RH  059%=      5-min Rain = 0
KEA1 110033Z 31004KT 24/15 A3011 RMK A01 T02380152  RH  058%=      5-min Rain = 0
KEA1 110034Z 30004KT 24/15 A3011 RMK A01 T02390150  RH  057%=      5-min Rain = 0
KEA1 110035Z 30004KT 24/15 A3011 RMK A01 T02390152  RH  058%=      5-min Rain = 0
KEA1 110036Z 30003KT 24/16 A3011 RMK A01 T02390157  RH  060%=      5-min Rain = 0
KEA1 110037Z 31003KT 24/16 A3011 RMK A01 T02410157  RH  059%=      5-min Rain = 0
KEA1 110038Z 31004KT 24/16 A3011 RMK A01 T02420155  RH  058%=      5-min Rain = 0
KEA1 110039Z 32003KT 24/15 A3011 RMK A01 T02420153  RH  058%=      5-min Rain = 0
KEA1 110040Z 33004KT 24/15 A3011 RMK A01 T02420152  RH  057%=      5-min Rain = 0
KEA1 110041Z 34003KT 24/15 A3011 RMK A01 T02410151  RH  057%=      5-min Rain = 0
KEA1 110042Z 33003KT 24/15 A3011 RMK A01 T02400150  RH  057%=      5-min Rain = 0
KEA1 110043Z 33003KT 24/15 A3011 RMK A01 T02400150  RH  057%=      5-min Rain = 0
KEA1 110044Z 33003KT 24/15 A3011 RMK A01 T02400149  RH  057%=      5-min Rain = 0
KEA1 110045Z 32003KT 24/15 A3011 RMK A01 T02400149  RH  057%=      5-min Rain = 0
KEA1 110046Z 32003KT 24/15 A3011 RMK A01 T02400149  RH  057%=      5-min Rain = 0
KEA1 110047Z 33003KT 24/15 A3011 RMK A01 T02400152  RH  058%=      5-min Rain = 0
KEA1 110048Z 34003KT 24/15 A3011 RMK A01 T02410152  RH  057%=      5-min Rain = 0
KEA1 110049Z 31004KT 24/16 A3011 RMK A01 T02420155  RH  058%=      5-min Rain = 0
KEA1 110050Z 30003KT 24/16 A3011 RMK A01 T02430156  RH  058%=      5-min Rain = 0
KEA1 110051Z 31003KT 24/15 A3011 RMK A01 T02420153  RH  057%=      5-min Rain = 0
KEA1 110052Z 32003KT 24/16 A3011 RMK A01 T02410156  RH  059%=      5-min Rain = 0
KEA1 110053Z 31003KT 24/16 A3011 RMK A01 T02410155  RH  058%=      5-min Rain = 0
KEA1 110054Z 30003KT 24/15 A3011 RMK A01 T02400153  RH  058%=      5-min Rain = 0
KEA1 110055Z 31004KT 24/15 A3011 RMK A01 T02390153  RH  058%=      5-min Rain = 0
KEA1 110056Z 30004KT 24/15 A3011 RMK A01 T02380152  RH  058%=      5-min Rain = 0
KEA1 110057Z 30004KT 24/15 A3011 RMK A01 T02380153  RH  059%=      5-min Rain = 0
KEA1 110058Z 30004KT 24/15 A3011 RMK A01 T02370154  RH  060%=      5-min Rain = 0
KEA1 110059Z 31004KT 24/16 A3011 RMK A01 T02360155  RH  060%=      5-min Rain = 0
KEA1 110100Z 31003KT 24/16 A3011 RMK A01 T02360156  RH  061%=      5-min Rain = 0
KEA1 110101Z 31003KT 24/16 A3011 RMK A01 T02350155  RH  061%=      5-min Rain = 0
KEA1 110102Z 30004KT 23/16 A3011 RMK A01 T02340156  RH  061%=      5-min Rain = 0
KEA1 110103Z 31004KT 23/16 A3011 RMK A01 T02330155  RH  061%=      5-min Rain = 0
KEA1 110104Z 31004KT 23/16 A3012 RMK A01 T02330155  RH  061%=      5-min Rain = 0
KEA1 110105Z 31004KT 23/16 A3012 RMK A01 T02320155  RH  062%=      5-min Rain = 0
KEA1 110111Z 31003KT 23/16 A3012 RMK A01 T02280156  RH  064%=      5-min Rain = 0
KEA1 110112Z 32003KT 23/16 A3012 RMK A01 T02280156  RH  064%=      5-min Rain = 0
KEA1 110113Z 31003KT 23/16 A3012 RMK A01 T02280156  RH  064%=      5-min Rain = 0
KEA1 110114Z 31003KT 23/16 A3012 RMK A01 T02270155  RH  064%=      5-min Rain = 0
KEA1 110115Z 31003KT 23/16 A3012 RMK A01 T02270155  RH  064%=      5-min Rain = 0
KEA1 110116Z 31003KT 23/16 A3012 RMK A01 T02270155  RH  064%=      5-min Rain = 0
KEA1 110117Z 30004KT 23/16 A3012 RMK A01 T02270155  RH  064%=      5-min Rain = 0
KEA1 110118Z 30004KT 23/16 A3012 RMK A01 T02270156  RH  064%=      5-min Rain = 0
KEA1 110119Z 30003KT 23/16 A3012 RMK A01 T02270156  RH  064%=      5-min Rain = 0
KEA1 110120Z 30003KT 23/16 A3012 RMK A01 T02270156  RH  064%=      5-min Rain = 0
KEA1 110121Z 29003KT 23/16 A3012 RMK A01 T02270156  RH  064%=      5-min Rain = 0
KEA1 110122Z 29003KT 23/16 A3012 RMK A01 T02270158  RH  065%=      5-min Rain = 0
KEA1 110123Z 29003KT 23/16 A3012 RMK A01 T02280158  RH  065%=      5-min Rain = 0
KEA1 110124Z 29003KT 23/16 A3012 RMK A01 T02280157  RH  064%=      5-min Rain = 0
KEA1 110125Z 29003KT 23/16 A3012 RMK A01 T02280157  RH  064%=      5-min Rain = 0
KEA1 110126Z 29003KT 23/16 A3012 RMK A01 T02280159  RH  065%=      5-min Rain = 0
KEA1 110127Z 29003KT 23/16 A3012 RMK A01 T02270159  RH  065%=      5-min Rain = 0
KEA1 110128Z 28002KT 23/16 A3012 RMK A01 T02260159  RH  066%=      5-min Rain = 0
KEA1 110129Z 28002KT 23/16 A3013 RMK A01 T02260158  RH  066%=      5-min Rain = 0
KEA1 110130Z 28002KT 23/16 A3013 RMK A01 T02250157  RH  065%=      5-min Rain = 0
KEA1 110131Z 29002KT 23/16 A3013 RMK A01 T02250157  RH  065%=      5-min Rain = 0
KEA1 110132Z 30001KT 23/16 A3013 RMK A01 T02250158  RH  066%=      5-min Rain = 0
KEA1 110133Z 30000KT 23/16 A3013 RMK A01 T02250157  RH  065%=      5-min Rain = 0
KEA1 110134Z 30000KT 23/16 A3013 RMK A01 T02250158  RH  066%=      5-min Rain = 0
KEA1 110135Z 14001KT 23/16 A3013 RMK A01 T02250160  RH  067%=      5-min Rain = 0
KEA1 110136Z 13002KT 22/16 A3013 RMK A01 T02230161  RH  068%=      5-min Rain = 0
KEA1 110137Z 13002KT 22/16 A3013 RMK A01 T02210162  RH  069%=      5-min Rain = 0
KEA1 110138Z 14002KT 22/16 A3013 RMK A01 T02180163  RH  071%=      5-min Rain = 0
KEA1 110139Z 14002KT 22/16 A3013 RMK A01 T02170163  RH  072%=      5-min Rain = 0
KEA1 110140Z 14002KT 22/16 A3013 RMK A01 T02150163  RH  072%=      5-min Rain = 0
KEA1 110141Z 14002KT 21/16 A3013 RMK A01 T02140164  RH  073%=      5-min Rain = 0
KEA1 110142Z 14002KT 21/16 A3013 RMK A01 T02130163  RH  073%=      5-min Rain = 0
KEA1 110143Z 13001KT 21/16 A3013 RMK A01 T02120161  RH  073%=      5-min Rain = 0
KEA1 110144Z 13000KT 21/16 A3013 RMK A01 T02130159  RH  071%=      5-min Rain = 0
KEA1 110145Z 03001KT 21/16 A3013 RMK A01 T02140161  RH  072%=      5-min Rain = 0
KEA1 110146Z 06001KT 22/16 A3013 RMK A01 T02150162  RH  072%=      5-min Rain = 0
KEA1 110147Z 06001KT 22/16 A3013 RMK A01 T02150164  RH  072%=      5-min Rain = 0
KEA1 110148Z 05002KT 22/17 A3013 RMK A01 T02150165  RH  073%=      5-min Rain = 0
KEA1 110149Z 05002KT 21/17 A3013 RMK A01 T02140166  RH  074%=      5-min Rain = 0
KEA1 110150Z 05002KT 21/16 A3013 RMK A01 T02130163  RH  073%=      5-min Rain = 0
KEA1 110151Z 06001KT 21/16 A3013 RMK A01 T02140160  RH  071%=      5-min Rain = 0
KEA1 110152Z 07001KT 22/16 A3013 RMK A01 T02150161  RH  071%=      5-min Rain = 0
KEA1 110153Z 07002KT 22/16 A3014 RMK A01 T02160160  RH  070%=      5-min Rain = 0
KEA1 110154Z 07002KT 22/16 A3014 RMK A01 T02180157  RH  069%=      5-min Rain = 0
KEA1 110155Z 06002KT 22/16 A3014 RMK A01 T02190160  RH  069%=      5-min Rain = 0
KEA1 110156Z 06003KT 22/17 A3014 RMK A01 T02190165  RH  072%=      5-min Rain = 0
KEA1 110157Z 06003KT 22/17 A3014 RMK A01 T02180166  RH  072%=      5-min Rain = 0
KEA1 110158Z 08003KT 22/17 A3014 RMK A01 T02160166  RH  073%=      5-min Rain = 0
KEA1 110159Z 08003KT 21/17 A3014 RMK A01 T02130167  RH  075%=      5-min Rain = 0
KEA1 110200Z 08003KT 21/17 A3014 RMK A01 T02100168  RH  076%=      5-min Rain = 0
KEA1 110201Z 08003KT 21/17 A3014 RMK A01 T02080168  RH  078%=      5-min Rain = 0
KEA1 110202Z 08003KT 21/17 A3014 RMK A01 T02060169  RH  079%=      5-min Rain = 0
KEA1 110203Z 08003KT 21/17 A3014 RMK A01 T02050168  RH  079%=      5-min Rain = 0
KEA1 110204Z 08003KT 21/16 A3014 RMK A01 T02050164  RH  077%=      5-min Rain = 0
KEA1 110205Z 09003KT 21/16 A3014 RMK A01 T02070164  RH  076%=      5-min Rain = 0
KEA1 110206Z 09003KT 21/17 A3014 RMK A01 T02080165  RH  076%=      5-min Rain = 0
KEA1 110207Z 09003KT 21/16 A3014 RMK A01 T02090164  RH  075%=      5-min Rain = 0
KEA1 110208Z 08004KT 21/16 A3014 RMK A01 T02090164  RH  075%=      5-min Rain = 0
KEA1 110209Z 07004KT 21/17 A3014 RMK A01 T02090165  RH  076%=      5-min Rain = 0
KEA1 110210Z 07004KT 21/17 A3014 RMK A01 T02080166  RH  077%=      5-min Rain = 0
KEA1 110211Z 07004KT 21/17 A3014 RMK A01 T02070165  RH  077%=      5-min Rain = 0
KEA1 110212Z 07004KT 21/17 A3014 RMK A01 T02060165  RH  077%=      5-min Rain = 0
KEA1 110213Z 07004KT 21/16 A3014 RMK A01 T02060164  RH  077%=      5-min Rain = 0
KEA1 110214Z 07004KT 21/16 A3014 RMK A01 T02060163  RH  076%=      5-min Rain = 0
KEA1 110215Z 08004KT 21/16 A3014 RMK A01 T02070164  RH  076%=      5-min Rain = 0
KEA1 110216Z 08004KT 21/17 A3014 RMK A01 T02080165  RH  076%=      5-min Rain = 0
KEA1 110217Z 08003KT 21/17 A3014 RMK A01 T02070165  RH  077%=      5-min Rain = 0
KEA1 110218Z 09003KT 21/17 A3014 RMK A01 T02070165  RH  077%=      5-min Rain = 0
KEA1 110219Z 09003KT 21/17 A3014 RMK A01 T02070166  RH  077%=      5-min Rain = 0
KEA1 110220Z 08004KT 21/17 A3014 RMK A01 T02070166  RH  077%=      5-min Rain = 0
KEA1 110221Z 08004KT 21/17 A3014 RMK A01 T02070166  RH  077%=      5-min Rain = 0
KEA1 110222Z 07004KT 21/17 A3014 RMK A01 T02070166  RH  077%=      5-min Rain = 0
KEA1 110223Z 07004KT 21/17 A3014 RMK A01 T02060166  RH  078%=      5-min Rain = 0
KEA1 110224Z 07004KT 21/17 A3015 RMK A01 T02050167  RH  078%=      5-min Rain = 0
KEA1 110225Z 07004KT 20/17 A3015 RMK A01 T02040167  RH  079%=      5-min Rain = 0
KEA1 110226Z 07004KT 20/17 A3015 RMK A01 T02030167  RH  080%=      5-min Rain = 0
KEA1 110227Z 08003KT 20/17 A3015 RMK A01 T02030167  RH  080%=      5-min Rain = 0
KEA1 110228Z 09003KT 20/17 A3015 RMK A01 T02020167  RH  080%=      5-min Rain = 0
KEA1 110229Z 09002KT 20/17 A3015 RMK A01 T02030167  RH  080%=      5-min Rain = 0
KEA1 110230Z 09002KT 20/17 A3015 RMK A01 T02040167  RH  079%=      5-min Rain = 0
KEA1 110231Z 09002KT 20/17 A3015 RMK A01 T02040167  RH  079%=      5-min Rain = 0
KEA1 110232Z 09002KT 21/17 A3015 RMK A01 T02050167  RH  079%=      5-min Rain = 0
KEA1 110233Z 09002KT 21/17 A3015 RMK A01 T02060167  RH  079%=      5-min Rain = 0
KEA1 110234Z 08003KT 21/17 A3015 RMK A01 T02050167  RH  079%=      5-min Rain = 0
KEA1 110235Z 08003KT 21/17 A3015 RMK A01 T02050167  RH  079%=      5-min Rain = 0
KEA1 110236Z 08002KT 21/17 A3015 RMK A01 T02050167  RH  079%=      5-min Rain = 0
KEA1 110237Z 08002KT 20/17 A3015 RMK A01 T02040167  RH  079%=      5-min Rain = 0
KEA1 110238Z 08002KT 20/17 A3015 RMK A01 T02040167  RH  079%=      5-min Rain = 0
KEA1 110239Z 08002KT 20/17 A3016 RMK A01 T02040166  RH  079%=      5-min Rain = 0
KEA1 110240Z 07002KT 20/17 A3016 RMK A01 T02030167  RH  080%=      5-min Rain = 0
KEA1 110241Z 07002KT 20/17 A3016 RMK A01 T02030167  RH  080%=      5-min Rain = 0
KEA1 110242Z 06002KT 20/17 A3016 RMK A01 T02020166  RH  080%=      5-min Rain = 0
KEA1 110243Z 06002KT 20/17 A3016 RMK A01 T02010166  RH  080%=      5-min Rain = 0
KEA1 110244Z 05002KT 20/17 A3016 RMK A01 T02000165  RH  080%=      5-min Rain = 0
KEA1 110245Z 04002KT 20/17 A3016 RMK A01 T02000165  RH  080%=      5-min Rain = 0
KEA1 110246Z 04002KT 20/16 A3016 RMK A01 T01990164  RH  080%=      5-min Rain = 0
KEA1 110247Z 05003KT 20/16 A3016 RMK A01 T01990163  RH  080%=      5-min Rain = 0
KEA1 110248Z 06003KT 20/16 A3017 RMK A01 T01980163  RH  080%=      5-min Rain = 0
KEA1 110249Z 07003KT 20/16 A3017 RMK A01 T01980163  RH  080%=      5-min Rain = 0
KEA1 110250Z 07003KT 20/16 A3017 RMK A01 T01970162  RH  080%=      5-min Rain = 0
KEA1 110251Z 08003KT 20/16 A3017 RMK A01 T01970161  RH  080%=      5-min Rain = 0
KEA1 110252Z 08002KT 20/16 A3017 RMK A01 T01980161  RH  079%=      5-min Rain = 0
KEA1 110253Z 10002KT 20/16 A3017 RMK A01 T01980160  RH  079%=      5-min Rain = 0
KEA1 110254Z 11002KT 20/16 A3017 RMK A01 T01990161  RH  079%=      5-min Rain = 0
KEA1 110255Z 11003KT 20/16 A3017 RMK A01 T01990162  RH  079%=      5-min Rain = 0
KEA1 110256Z 11003KT 20/16 A3017 RMK A01 T01990163  RH  080%=      5-min Rain = 0
KEA1 110257Z 12003KT 20/16 A3017 RMK A01 T01980163  RH  080%=      5-min Rain = 0
KEA1 110258Z 12003KT 20/16 A3017 RMK A01 T01980164  RH  081%=      5-min Rain = 0
KEA1 110259Z 12004KT 20/16 A3017 RMK A01 T01970164  RH  081%=      5-min Rain = 0
KEA1 110300Z 12003KT 20/16 A3017 RMK A01 T01970164  RH  081%=      5-min Rain = 0
KEA1 110301Z 12004KT 20/16 A3017 RMK A01 T01970164  RH  081%=      5-min Rain = 0
KEA1 110302Z 12004KT 20/16 A3017 RMK A01 T01980164  RH  081%=      5-min Rain = 0
KEA1 110303Z 12004KT 20/17 A3017 RMK A01 T01980165  RH  081%=      5-min Rain = 0
KEA1 110304Z 13004KT 20/17 A3017 RMK A01 T01970165  RH  082%=      5-min Rain = 0
KEA1 110305Z 14005KT 20/16 A3017 RMK A01 T01950164  RH  082%=      5-min Rain = 0
KEA1 110306Z 14005KT 19/16 A3017 RMK A01 T01920163  RH  083%=      5-min Rain = 0
KEA1 110307Z 15005KT 19/16 A3017 RMK A01 T01890163  RH  084%=      5-min Rain = 0
KEA1 110308Z 15006KT 19/16 A3017 RMK A01 T01870163  RH  086%=      5-min Rain = 0
KEA1 110309Z 15006KT 19/16 A3017 RMK A01 T01860164  RH  087%=      5-min Rain = 0
KEA1 110310Z 15006KT 19/17 A3017 RMK A01 T01850165  RH  088%=      5-min Rain = 0
KEA1 110311Z 15006KT 19/17 A3017 RMK A01 T01850166  RH  089%=      5-min Rain = 0
KEA1 110312Z 15006KT 18/17 A3017 RMK A01 T01840166  RH  089%=      5-min Rain = 0
KEA1 110313Z 15006KT 18/17 A3017 RMK A01 T01840166  RH  089%=      5-min Rain = 0
KEA1 110314Z 16006KT 18/17 A3017 RMK A01 T01840166  RH  090%=      5-min Rain = 0
KEA1 110315Z 16006KT 18/17 A3017 RMK A01 T01830166  RH  090%=      5-min Rain = 0
KEA1 110316Z 16006KT 18/17 A3017 RMK A01 T01840166  RH  090%=      5-min Rain = 0
KEA1 110317Z 16007KT 18/17 A3017 RMK A01 T01840166  RH  090%=      5-min Rain = 0
KEA1 110318Z 17007KT 18/17 A3017 RMK A01 T01840167  RH  090%=      5-min Rain = 0
KEA1 110319Z 16007KT 18/17 A3018 RMK A01 T01840167  RH  090%=      5-min Rain = 0
KEA1 110320Z 16007KT 19/17 A3018 RMK A01 T01850168  RH  090%=      5-min Rain = 0
KEA1 110321Z 16006KT 19/17 A3018 RMK A01 T01850168  RH  090%=      5-min Rain = 0
KEA1 110322Z 16006KT 19/17 A3018 RMK A01 T01860168  RH  090%=      5-min Rain = 0
KEA1 110323Z 16005KT 19/17 A3018 RMK A01 T01860168  RH  090%=      5-min Rain = 0
KEA1 110324Z 15005KT 19/17 A3018 RMK A01 T01860168  RH  090%=      5-min Rain = 0
KEA1 110325Z 15005KT 19/17 A3018 RMK A01 T01860168  RH  089%=      5-min Rain = 0
KEA1 110326Z 15005KT 19/17 A3018 RMK A01 T01860168  RH  089%=      5-min Rain = 0
KEA1 110327Z 14004KT 19/17 A3018 RMK A01 T01860168  RH  089%=      5-min Rain = 0
KEA1 110328Z 14004KT 19/17 A3018 RMK A01 T01860168  RH  089%=      5-min Rain = 0
KEA1 110329Z 14004KT 19/17 A3018 RMK A01 T01870169  RH  089%=      5-min Rain = 0
KEA1 110330Z 14003KT 19/17 A3018 RMK A01 T01870169  RH  089%=      5-min Rain = 0
KEA1 110331Z 14003KT 19/17 A3018 RMK A01 T01870169  RH  089%=      5-min Rain = 0
KEA1 110332Z 14003KT 19/17 A3018 RMK A01 T01870168  RH  089%=      5-min Rain = 0
KEA1 110333Z 14003KT 19/17 A3018 RMK A01 T01870168  RH  089%=      5-min Rain = 0
KEA1 110334Z 13003KT 19/17 A3018 RMK A01 T01860169  RH  089%=      5-min Rain = 0
KEA1 110335Z 12003KT 19/17 A3018 RMK A01 T01860168  RH  089%=      5-min Rain = 0
KEA1 110336Z 12003KT 19/17 A3018 RMK A01 T01850168  RH  089%=      5-min Rain = 0
KEA1 110337Z 12003KT 19/17 A3018 RMK A01 T01850167  RH  090%=      5-min Rain = 0
KEA1 110338Z 13003KT 19/17 A3018 RMK A01 T01850168  RH  090%=      5-min Rain = 0
KEA1 110339Z 13003KT 19/17 A3018 RMK A01 T01850168  RH  090%=      5-min Rain = 0
KEA1 110340Z 13003KT 19/17 A3018 RMK A01 T01850169  RH  090%=      5-min Rain = 0
KEA1 110341Z 13004KT 19/17 A3018 RMK A01 T01860170  RH  091%=      5-min Rain = 0
KEA1 110342Z 13004KT 19/17 A3018 RMK A01 T01880171  RH  090%=      5-min Rain = 0
KEA1 110343Z 14004KT 19/17 A3018 RMK A01 T01890170  RH  089%=      5-min Rain = 0
KEA1 110344Z 14003KT 19/17 A3018 RMK A01 T01900170  RH  088%=      5-min Rain = 0
KEA1 110345Z 15003KT 19/17 A3018 RMK A01 T01910170  RH  088%=      5-min Rain = 0
KEA1 110346Z 16003KT 19/17 A3018 RMK A01 T01900169  RH  087%=      5-min Rain = 0
KEA1 110347Z 16003KT 19/17 A3018 RMK A01 T01890168  RH  088%=      5-min Rain = 0
KEA1 110348Z 17003KT 19/17 A3018 RMK A01 T01880169  RH  089%=      5-min Rain = 0
KEA1 110349Z 17003KT 19/17 A3018 RMK A01 T01880170  RH  089%=      5-min Rain = 0
KEA1 110350Z 16003KT 19/17 A3018 RMK A01 T01890171  RH  089%=      5-min Rain = 0
KEA1 110351Z 16002KT 19/17 A3018 RMK A01 T01900171  RH  089%=      5-min Rain = 0
KEA1 110352Z 14002KT 19/17 A3018 RMK A01 T01900171  RH  089%=      5-min Rain = 0
KEA1 110353Z 12002KT 19/17 A3018 RMK A01 T01910171  RH  088%=      5-min Rain = 0
KEA1 110354Z 11001KT 19/17 A3018 RMK A01 T01910170  RH  088%=      5-min Rain = 0
KEA1 110355Z 10001KT 19/17 A3018 RMK A01 T01910170  RH  088%=      5-min Rain = 0
KEA1 110356Z 12001KT 19/17 A3018 RMK A01 T01910170  RH  087%=      5-min Rain = 0
KEA1 110357Z 14001KT 19/17 A3018 RMK A01 T01910170  RH  087%=      5-min Rain = 0
KEA1 110358Z 18002KT 19/17 A3018 RMK A01 T01910170  RH  088%=      5-min Rain = 0
KEA1 110359Z 20002KT 19/17 A3018 RMK A01 T01910169  RH  087%=      5-min Rain = 0
KEA1 110400Z 19002KT 19/17 A3018 RMK A01 T01910170  RH  088%=      5-min Rain = 0
KEA1 110401Z 19002KT 19/17 A3018 RMK A01 T01890169  RH  088%=      5-min Rain = 0
KEA1 110402Z 18001KT 19/17 A3018 RMK A01 T01890168  RH  088%=      5-min Rain = 0
KEA1 110403Z 18001KT 19/16 A3018 RMK A01 T01860163  RH  087%=      5-min Rain = 0
KEA1 110404Z 18001KT 18/16 A3018 RMK A01 T01840163  RH  088%=      5-min Rain = 0
KEA1 110405Z 20002KT 18/17 A3018 RMK A01 T01830165  RH  089%=      5-min Rain = 0
KEA1 110406Z 22003KT 18/17 A3018 RMK A01 T01830165  RH  089%=      5-min Rain = 0
KEA1 110407Z 23003KT 18/16 A3018 RMK A01 T01810162  RH  089%=      5-min Rain = 0
KEA1 110408Z 23003KT 18/16 A3018 RMK A01 T01790162  RH  090%=      5-min Rain = 0
KEA1 110409Z 22003KT 18/16 A3018 RMK A01 T01790163  RH  090%=      5-min Rain = 0
KEA1 110410Z 21004KT 18/16 A3018 RMK A01 T01800164  RH  091%=      5-min Rain = 0
KEA1 110411Z 20004KT 18/16 A3018 RMK A01 T01800164  RH  090%=      5-min Rain = 0
KEA1 110412Z 20004KT 18/17 A3018 RMK A01 T01820166  RH  090%=      5-min Rain = 0
KEA1 110413Z 21004KT 19/17 A3018 RMK A01 T01850166  RH  089%=      5-min Rain = 0
KEA1 110414Z 21004KT 19/17 A3018 RMK A01 T01870166  RH  087%=      5-min Rain = 0
KEA1 110415Z 20005KT 19/17 A3018 RMK A01 T01880165  RH  086%=      5-min Rain = 0
KEA1 110416Z 20004KT 19/17 A3018 RMK A01 T01900166  RH  086%=      5-min Rain = 0
KEA1 110417Z 19005KT 19/17 A3018 RMK A01 T01900168  RH  087%=      5-min Rain = 0
KEA1 110418Z 19006KT 19/17 A3019 RMK A01 T01890169  RH  088%=      5-min Rain = 0
KEA1 110419Z 19007KT 19/17 A3019 RMK A01 T01880170  RH  089%=      5-min Rain = 0
KEA1 110420Z 19006KT 19/17 A3019 RMK A01 T01880172  RH  090%=      5-min Rain = 0
KEA1 110421Z 18005KT 19/17 A3019 RMK A01 T01880171  RH  090%=      5-min Rain = 0
KEA1 110422Z 17004KT 19/17 A3019 RMK A01 T01890171  RH  089%=      5-min Rain = 0
KEA1 110423Z 16004KT 19/17 A3019 RMK A01 T01900171  RH  089%=      5-min Rain = 0
KEA1 110424Z 15005KT 19/17 A302 RMK A01 T01900172  RH  089%=      5-min Rain = 0
KEA1 110425Z 15005KT 19/17 A302 RMK A01 T01910171  RH  088%=      5-min Rain = 0
KEA1 110426Z 16006KT 19/17 A302 RMK A01 T01920172  RH  088%=      5-min Rain = 0
KEA1 110427Z 16007KT 19/17 A302 RMK A01 T01920174  RH  089%=      5-min Rain = 0
KEA1 110428Z 16007KT 19/17 A302 RMK A01 T01900173  RH  090%=      5-min Rain = 0
KEA1 110429Z 17007KT 19/17 A302 RMK A01 T01890173  RH  090%=      5-min Rain = 0
KEA1 110430Z 17006KT 19/17 A302 RMK A01 T01890172  RH  090%=      5-min Rain = 0
KEA1 110431Z 17006KT 19/17 A302 RMK A01 T01890172  RH  090%=      5-min Rain = 0
KEA1 110432Z 18004KT 19/17 A302 RMK A01 T01890172  RH  090%=      5-min Rain = 0
KEA1 110433Z 18004KT 19/17 A302 RMK A01 T01890172  RH  089%=      5-min Rain = 0
KEA1 110434Z 18003KT 19/17 A302 RMK A01 T01900172  RH  089%=      5-min Rain = 0
KEA1 110435Z 18002KT 19/17 A302 RMK A01 T01900171  RH  089%=      5-min Rain = 0
KEA1 110436Z 18003KT 19/17 A302 RMK A01 T01900171  RH  089%=      5-min Rain = 0
KEA1 110437Z 18003KT 19/17 A302 RMK A01 T01900171  RH  089%=      5-min Rain = 0
KEA1 110438Z 19004KT 19/17 A302 RMK A01 T01900171  RH  088%=      5-min Rain = 0
KEA1 110439Z 19005KT 19/17 A302 RMK A01 T01910170  RH  088%=      5-min Rain = 0
KEA1 110440Z 19004KT 19/17 A302 RMK A01 T01910169  RH  087%=      5-min Rain = 0
KEA1 110441Z 20004KT 19/17 A302 RMK A01 T01920169  RH  087%=      5-min Rain = 0
KEA1 110442Z 19003KT 19/17 A302 RMK A01 T01920169  RH  086%=      5-min Rain = 0
KEA1 110443Z 19002KT 19/17 A302 RMK A01 T01930170  RH  086%=      5-min Rain = 0
KEA1 110444Z 20001KT 19/17 A302 RMK A01 T01940168  RH  085%=      5-min Rain = 0
KEA1 110445Z 22002KT 19/17 A302 RMK A01 T01940169  RH  086%=      5-min Rain = 0
KEA1 110446Z 21003KT 19/17 A302 RMK A01 T01940168  RH  085%=      5-min Rain = 0
KEA1 110447Z 21004KT 19/17 A302 RMK A01 T01940169  RH  085%=      5-min Rain = 0
KEA1 110448Z 20003KT 19/17 A3021 RMK A01 T01940170  RH  086%=      5-min Rain = 0
KEA1 110449Z 19002KT 19/17 A3021 RMK A01 T01930171  RH  087%=      5-min Rain = 0
KEA1 110450Z 18004KT 19/17 A3021 RMK A01 T01930170  RH  087%=      5-min Rain = 0
KEA1 110451Z 17004KT 19/17 A3021 RMK A01 T01920169  RH  086%=      5-min Rain = 0
KEA1 110452Z 17003KT 19/17 A3021 RMK A01 T01920169  RH  086%=      5-min Rain = 0
KEA1 110453Z 17003KT 19/17 A3021 RMK A01 T01920168  RH  086%=      5-min Rain = 0
KEA1 110454Z 18003KT 19/17 A3021 RMK A01 T01920168  RH  086%=      5-min Rain = 0
KEA1 110455Z 17002KT 19/17 A3021 RMK A01 T01920167  RH  085%=      5-min Rain = 0
KEA1 110456Z 16001KT 19/17 A3021 RMK A01 T01920167  RH  085%=      5-min Rain = 0
KEA1 110457Z 16000KT 19/17 A3021 RMK A01 T01930168  RH  086%=      5-min Rain = 0
KEA1 110458Z 00000KT 19/17 A3021 RMK A01 T01930168  RH  085%=      5-min Rain = 0
KEA1 110459Z 23000KT 19/17 A3021 RMK A01 T01930167  RH  085%=      5-min Rain = 0

Page generated in 0.0376 seconds.